Observation data for Palo Duro Reservoir 1NW on 08/14/2019      Previous  Date  Next       Current Mesonet Observations  Soil Data  Daily Summary Page  Observations in Plain Language
KPD4 140500Z 06016KT 19/14 A3023 RMK A01 T01870136  RH  072%=      5-min Rain = 0
KPD4 140501Z 06015KT 19/14 A3023 RMK A01 T01870136  RH  072%=      5-min Rain = 0
KPD4 140502Z 06013KT 19/14 A3023 RMK A01 T01870137  RH  073%=      5-min Rain = 0
KPD4 140503Z 06015KT 19/14 A3024 RMK A01 T01870136  RH  072%=      5-min Rain = 0
KPD4 140504Z 06016KT 19/14 A3024 RMK A01 T01870137  RH  072%=      5-min Rain = 0
KPD4 140505Z 06017KT 19/14 A3024 RMK A01 T01870136  RH  072%=      5-min Rain = 0
KPD4 140506Z 06018KT 19/14 A3024 RMK A01 T01870135  RH  071%=      5-min Rain = 0
KPD4 140507Z 06019KT 19/14 A3024 RMK A01 T01880135  RH  071%=      5-min Rain = 0
KPD4 140508Z 06015KT 19/14 A3024 RMK A01 T01880135  RH  071%=      5-min Rain = 0
KPD4 140509Z 06014KT 19/14 A3023 RMK A01 T01880135  RH  071%=      5-min Rain = 0
KPD4 140510Z 05015KT 19/14 A3023 RMK A01 T01880135  RH  071%=      5-min Rain = 0
KPD4 140511Z 05018KT 19/13 A3023 RMK A01 T01870134  RH  071%=      5-min Rain = 0
KPD4 140512Z 05015KT 19/13 A3023 RMK A01 T01880134  RH  071%=      5-min Rain = 0
KPD4 140513Z 05012KT 19/14 A3023 RMK A01 T01880135  RH  072%=      5-min Rain = 0
KPD4 140514Z 06013KT 19/14 A3023 RMK A01 T01870135  RH  072%=      5-min Rain = 0
KPD4 140515Z 06012KT 19/14 A3023 RMK A01 T01870136  RH  072%=      5-min Rain = 0
KPD4 140516Z 06013KT 19/14 A3024 RMK A01 T01860136  RH  072%=      5-min Rain = 0
KPD4 140517Z 06015KT 19/13 A3023 RMK A01 T01860134  RH  072%=      5-min Rain = 0
KPD4 140518Z 05014KT 19/13 A3023 RMK A01 T01870133  RH  071%=      5-min Rain = 0
KPD4 140519Z 06013KT 19/13 A3023 RMK A01 T01880134  RH  071%=      5-min Rain = 0
KPD4 140520Z 06013KT 19/14 A3023 RMK A01 T01880135  RH  071%=      5-min Rain = 0
KPD4 140521Z 06013KT 19/13 A3023 RMK A01 T01870134  RH  071%=      5-min Rain = 0
KPD4 140522Z 06011KT 19/14 A3024 RMK A01 T01870135  RH  071%=      5-min Rain = 0
KPD4 140523Z 07012KT 19/14 A3023 RMK A01 T01870135  RH  072%=      5-min Rain = 0
KPD4 140524Z 06013KT 19/13 A3023 RMK A01 T01870134  RH  071%=      5-min Rain = 0
KPD4 140525Z 06013KT 19/13 A3023 RMK A01 T01870133  RH  071%=      5-min Rain = 0
KPD4 140526Z 06014KT 19/13 A3023 RMK A01 T01870132  RH  070%=      5-min Rain = 0
KPD4 140527Z 06014KT 19/13 A3023 RMK A01 T01880132  RH  070%=      5-min Rain = 0
KPD4 140528Z 06013KT 19/13 A3023 RMK A01 T01890132  RH  070%=      5-min Rain = 0
KPD4 140529Z 06010KT 19/13 A3023 RMK A01 T01890133  RH  070%=      5-min Rain = 0
KPD4 140530Z 06010KT 19/13 A3023 RMK A01 T01880134  RH  071%=      5-min Rain = 0
KPD4 140531Z 06014KT 19/13 A3023 RMK A01 T01870133  RH  071%=      5-min Rain = 0
KPD4 140532Z 06014KT 19/13 A3023 RMK A01 T01870132  RH  070%=      5-min Rain = 0
KPD4 140533Z 06015KT 19/13 A3023 RMK A01 T01880132  RH  070%=      5-min Rain = 0
KPD4 140534Z 06014KT 19/13 A3023 RMK A01 T01880131  RH  069%=      5-min Rain = 0
KPD4 140535Z 06013KT 19/13 A3023 RMK A01 T01890132  RH  069%=      5-min Rain = 0
KPD4 140536Z 06013KT 19/13 A3023 RMK A01 T01890132  RH  069%=      5-min Rain = 0
KPD4 140537Z 07013KT 19/13 A3023 RMK A01 T01890131  RH  069%=      5-min Rain = 0
KPD4 140538Z 07011KT 19/13 A3023 RMK A01 T01890132  RH  069%=      5-min Rain = 0
KPD4 140539Z 06012KT 19/13 A3023 RMK A01 T01890133  RH  070%=      5-min Rain = 0
KPD4 140540Z 06012KT 19/13 A3023 RMK A01 T01880132  RH  070%=      5-min Rain = 0
KPD4 140541Z 06012KT 19/13 A3023 RMK A01 T01880131  RH  070%=      5-min Rain = 0
KPD4 140542Z 06011KT 19/13 A3023 RMK A01 T01880131  RH  069%=      5-min Rain = 0
KPD4 140543Z 06012KT 19/13 A3023 RMK A01 T01880131  RH  069%=      5-min Rain = 0
KPD4 140544Z 07012KT 19/13 A3023 RMK A01 T01890131  RH  069%=      5-min Rain = 0
KPD4 140545Z 07011KT 19/13 A3023 RMK A01 T01880131  RH  069%=      5-min Rain = 0
KPD4 140546Z 07010KT 19/13 A3023 RMK A01 T01890132  RH  070%=      5-min Rain = 0
KPD4 140547Z 07011KT 19/13 A3023 RMK A01 T01880132  RH  070%=      5-min Rain = 0
KPD4 140548Z 07012KT 19/13 A3023 RMK A01 T01880131  RH  070%=      5-min Rain = 0
KPD4 140549Z 07012KT 19/13 A3023 RMK A01 T01880131  RH  069%=      5-min Rain = 0
KPD4 140550Z 06012KT 19/13 A3023 RMK A01 T01880131  RH  069%=      5-min Rain = 0
KPD4 140551Z 06010KT 19/13 A3023 RMK A01 T01880131  RH  069%=      5-min Rain = 0
KPD4 140552Z 07011KT 19/13 A3023 RMK A01 T01880131  RH  069%=      5-min Rain = 0
KPD4 140553Z 06011KT 19/13 A3023 RMK A01 T01880131  RH  069%=      5-min Rain = 0
KPD4 140554Z 07010KT 19/13 A3023 RMK A01 T01890131  RH  069%=      5-min Rain = 0
KPD4 140555Z 06011KT 19/13 A3023 RMK A01 T01890131  RH  069%=      5-min Rain = 0
KPD4 140556Z 06013KT 19/13 A3022 RMK A01 T01900130  RH  068%=      5-min Rain = 0
KPD4 140557Z 06013KT 19/13 A3022 RMK A01 T01910129  RH  067%=      5-min Rain = 0
KPD4 140558Z 06010KT 19/13 A3022 RMK A01 T01920130  RH  067%=      5-min Rain = 0
KPD4 140559Z 06009KT 19/13 A3022 RMK A01 T01920131  RH  068%=      5-min Rain = 0
KPD4 140600Z 05010G15KT 19/13 A3022 RMK A01 T01910131  RH  068%=      5-min Rain = 0
KPD4 140601Z 05010KT 19/13 A3022 RMK A01 T01910129  RH  067%=      5-min Rain = 0
KPD4 140602Z 06008KT 19/13 A3022 RMK A01 T01910129  RH  067%=      5-min Rain = 0
KPD4 140603Z 06009KT 19/13 A3022 RMK A01 T01910130  RH  067%=      5-min Rain = 0
KPD4 140604Z 07008KT 19/13 A3022 RMK A01 T01910129  RH  067%=      5-min Rain = 0
KPD4 140605Z 06009KT 19/13 A3022 RMK A01 T01910129  RH  067%=      5-min Rain = 0
KPD4 140606Z 07009KT 19/13 A3023 RMK A01 T01910128  RH  067%=      5-min Rain = 0
KPD4 140607Z 07009KT 19/13 A3023 RMK A01 T01920128  RH  066%=      5-min Rain = 0
KPD4 140608Z 07008KT 19/13 A3023 RMK A01 T01930128  RH  066%=      5-min Rain = 0
KPD4 140609Z 06007KT 19/13 A3023 RMK A01 T01930128  RH  066%=      5-min Rain = 0
KPD4 140610Z 06008KT 19/13 A3023 RMK A01 T01930129  RH  066%=      5-min Rain = 0
KPD4 140611Z 06007KT 19/13 A3023 RMK A01 T01930129  RH  066%=      5-min Rain = 0
KPD4 140612Z 05006KT 19/13 A3023 RMK A01 T01930129  RH  066%=      5-min Rain = 0
KPD4 140613Z 05005KT 19/13 A3023 RMK A01 T01930129  RH  066%=      5-min Rain = 0
KPD4 140614Z 05005KT 19/13 A3023 RMK A01 T01940129  RH  066%=      5-min Rain = 0
KPD4 140615Z 06006KT 19/13 A3023 RMK A01 T01940129  RH  066%=      5-min Rain = 0
KPD4 140616Z 07007KT 19/13 A3023 RMK A01 T01930128  RH  066%=      5-min Rain = 0
KPD4 140617Z 05007KT 19/13 A3023 RMK A01 T01940129  RH  066%=      5-min Rain = 0
KPD4 140618Z 05007KT 19/13 A3023 RMK A01 T01940129  RH  066%=      5-min Rain = 0
KPD4 140619Z 05008KT 19/13 A3023 RMK A01 T01940127  RH  065%=      5-min Rain = 0
KPD4 140620Z 06009KT 20/13 A3023 RMK A01 T01950128  RH  065%=      5-min Rain = 0
KPD4 140621Z 06008KT 20/13 A3023 RMK A01 T01950128  RH  065%=      5-min Rain = 0
KPD4 140622Z 05006KT 20/13 A3023 RMK A01 T01950129  RH  065%=      5-min Rain = 0
KPD4 140623Z 06008KT 20/13 A3023 RMK A01 T01950129  RH  066%=      5-min Rain = 0
KPD4 140624Z 06008KT 20/13 A3023 RMK A01 T01950129  RH  066%=      5-min Rain = 0
KPD4 140625Z 05008KT 20/13 A3023 RMK A01 T01950130  RH  066%=      5-min Rain = 0
KPD4 140626Z 06008KT 20/13 A3023 RMK A01 T01950129  RH  065%=      5-min Rain = 0
KPD4 140627Z 06009KT 20/13 A3023 RMK A01 T01950128  RH  065%=      5-min Rain = 0
KPD4 140628Z 05007KT 20/13 A3023 RMK A01 T01950128  RH  065%=      5-min Rain = 0
KPD4 140629Z 06007KT 20/13 A3023 RMK A01 T01950128  RH  065%=      5-min Rain = 0
KPD4 140630Z 06008KT 20/13 A3023 RMK A01 T01950129  RH  066%=      5-min Rain = 0
KPD4 140631Z 05008KT 19/13 A3023 RMK A01 T01940128  RH  066%=      5-min Rain = 0
KPD4 140632Z 06007KT 19/13 A3023 RMK A01 T01930128  RH  066%=      5-min Rain = 0
KPD4 140633Z 06008KT 19/13 A3023 RMK A01 T01920128  RH  066%=      5-min Rain = 0
KPD4 140634Z 05009KT 19/13 A3023 RMK A01 T01920127  RH  066%=      5-min Rain = 0
KPD4 140635Z 06009KT 19/13 A3023 RMK A01 T01920128  RH  066%=      5-min Rain = 0
KPD4 140636Z 06010KT 19/13 A3022 RMK A01 T01910127  RH  066%=      5-min Rain = 0
KPD4 140637Z 07011KT 19/13 A3022 RMK A01 T01920126  RH  066%=      5-min Rain = 0
KPD4 140638Z 06010KT 19/13 A3022 RMK A01 T01920126  RH  066%=      5-min Rain = 0
KPD4 140639Z 06011KT 19/13 A3023 RMK A01 T01920128  RH  066%=      5-min Rain = 0
KPD4 140640Z 06009KT 19/13 A3023 RMK A01 T01920128  RH  066%=      5-min Rain = 0
KPD4 140641Z 06010KT 19/13 A3023 RMK A01 T01910129  RH  067%=      5-min Rain = 0
KPD4 140642Z 06012KT 19/13 A3023 RMK A01 T01900127  RH  066%=      5-min Rain = 0
KPD4 140643Z 06009KT 19/13 A3023 RMK A01 T01910127  RH  067%=      5-min Rain = 0
KPD4 140644Z 06010KT 19/13 A3023 RMK A01 T01910128  RH  067%=      5-min Rain = 0
KPD4 140645Z 06009KT 19/13 A3023 RMK A01 T01900129  RH  067%=      5-min Rain = 0
KPD4 140646Z 05012KT 19/13 A3023 RMK A01 T01900127  RH  067%=      5-min Rain = 0
KPD4 140647Z 06010KT 19/13 A3023 RMK A01 T01900127  RH  067%=      5-min Rain = 0
KPD4 140648Z 06009KT 19/13 A3023 RMK A01 T01910128  RH  067%=      5-min Rain = 0
KPD4 140649Z 06008KT 19/13 A3023 RMK A01 T01900129  RH  068%=      5-min Rain = 0
KPD4 140650Z 06008KT 19/13 A3023 RMK A01 T01890129  RH  068%=      5-min Rain = 0
KPD4 140651Z 06009KT 19/13 A3023 RMK A01 T01880129  RH  068%=      5-min Rain = 0
KPD4 140652Z 06008KT 19/13 A3022 RMK A01 T01880128  RH  068%=      5-min Rain = 0
KPD4 140653Z 06008KT 19/13 A3022 RMK A01 T01880129  RH  069%=      5-min Rain = 0
KPD4 140654Z 07008KT 19/13 A3022 RMK A01 T01870130  RH  069%=      5-min Rain = 0
KPD4 140655Z 06008KT 19/13 A3023 RMK A01 T01860129  RH  069%=      5-min Rain = 0
KPD4 140656Z 06008KT 19/13 A3023 RMK A01 T01860129  RH  069%=      5-min Rain = 0
KPD4 140657Z 06007KT 19/13 A3023 RMK A01 T01860129  RH  069%=      5-min Rain = 0
KPD4 140658Z 06006KT 19/13 A3023 RMK A01 T01860129  RH  069%=      5-min Rain = 0
KPD4 140659Z 06006KT 19/13 A3023 RMK A01 T01860129  RH  069%=      5-min Rain = 0
KPD4 140700Z 06006KT 19/13 A3023 RMK A01 T01860130  RH  070%=      5-min Rain = 0
KPD4 140701Z 06006KT 19/13 A3023 RMK A01 T01850130  RH  070%=      5-min Rain = 0
KPD4 140702Z 06006KT 19/13 A3023 RMK A01 T01850130  RH  070%=      5-min Rain = 0
KPD4 140703Z 07006KT 18/13 A3023 RMK A01 T01840131  RH  071%=      5-min Rain = 0
KPD4 140704Z 06007KT 18/13 A3023 RMK A01 T01840131  RH  071%=      5-min Rain = 0
KPD4 140705Z 07006KT 18/13 A3023 RMK A01 T01830131  RH  072%=      5-min Rain = 0
KPD4 140706Z 07007KT 18/13 A3023 RMK A01 T01830131  RH  072%=      5-min Rain = 0
KPD4 140707Z 07008KT 18/13 A3023 RMK A01 T01830131  RH  072%=      5-min Rain = 0
KPD4 140708Z 08007KT 18/13 A3022 RMK A01 T01820131  RH  072%=      5-min Rain = 0
KPD4 140709Z 08006KT 18/13 A3022 RMK A01 T01820132  RH  072%=      5-min Rain = 0
KPD4 140710Z 08008KT 18/13 A3022 RMK A01 T01820131  RH  072%=      5-min Rain = 0
KPD4 140711Z 08007KT 18/13 A3022 RMK A01 T01810130  RH  072%=      5-min Rain = 0
KPD4 140712Z 09006KT 18/13 A3022 RMK A01 T01810130  RH  072%=      5-min Rain = 0
KPD4 140713Z 09007KT 18/13 A3021 RMK A01 T01810131  RH  073%=      5-min Rain = 0
KPD4 140714Z 09007KT 18/13 A3021 RMK A01 T01800131  RH  073%=      5-min Rain = 0
KPD4 140715Z 09007KT 18/13 A3021 RMK A01 T01790131  RH  073%=      5-min Rain = 0
KPD4 140716Z 09007KT 18/13 A3021 RMK A01 T01790130  RH  073%=      5-min Rain = 0
KPD4 140717Z 09007KT 18/13 A3021 RMK A01 T01790130  RH  073%=      5-min Rain = 0
KPD4 140718Z 10006KT 18/13 A3021 RMK A01 T01790131  RH  074%=      5-min Rain = 0
KPD4 140719Z 07005KT 18/13 A3021 RMK A01 T01780132  RH  074%=      5-min Rain = 0
KPD4 140720Z 04006KT 18/13 A3022 RMK A01 T01780132  RH  075%=      5-min Rain = 0
KPD4 140721Z 04008KT 18/13 A3022 RMK A01 T01770132  RH  075%=      5-min Rain = 0
KPD4 140722Z 06006KT 18/13 A3022 RMK A01 T01770132  RH  075%=      5-min Rain = 0
KPD4 140723Z 08006KT 18/13 A3021 RMK A01 T01770133  RH  075%=      5-min Rain = 0
KPD4 140724Z 09007KT 18/13 A3021 RMK A01 T01770132  RH  075%=      5-min Rain = 0
KPD4 140725Z 10005KT 18/13 A302 RMK A01 T01770132  RH  075%=      5-min Rain = 0
KPD4 140726Z 10004KT 18/13 A3021 RMK A01 T01770132  RH  075%=      5-min Rain = 0
KPD4 140727Z 08005KT 18/13 A3021 RMK A01 T01770132  RH  075%=      5-min Rain = 0
KPD4 140728Z 05006KT 18/13 A3022 RMK A01 T01770132  RH  075%=      5-min Rain = 0
KPD4 140729Z 04007KT 18/13 A3022 RMK A01 T01770133  RH  075%=      5-min Rain = 0
KPD4 140730Z 04007KT 18/13 A3022 RMK A01 T01770132  RH  075%=      5-min Rain = 0
KPD4 140731Z 06007KT 18/13 A3022 RMK A01 T01780132  RH  074%=      5-min Rain = 0
KPD4 140732Z 07006KT 18/13 A3021 RMK A01 T01780131  RH  074%=      5-min Rain = 0
KPD4 140733Z 07005KT 18/13 A3021 RMK A01 T01780132  RH  075%=      5-min Rain = 0
KPD4 140734Z 06006KT 18/13 A3021 RMK A01 T01770133  RH  075%=      5-min Rain = 0
KPD4 140735Z 06005KT 18/13 A3021 RMK A01 T01760133  RH  075%=      5-min Rain = 0
KPD4 140736Z 06006KT 18/13 A3022 RMK A01 T01770132  RH  075%=      5-min Rain = 0
KPD4 140737Z 06007KT 18/13 A3022 RMK A01 T01770131  RH  074%=      5-min Rain = 0
KPD4 140738Z 06006KT 18/13 A3022 RMK A01 T01780131  RH  074%=      5-min Rain = 0
KPD4 140739Z 06005KT 18/13 A3021 RMK A01 T01780131  RH  074%=      5-min Rain = 0
KPD4 140740Z 07004KT 18/13 A3021 RMK A01 T01790132  RH  074%=      5-min Rain = 0
KPD4 140741Z 07003KT 18/13 A3021 RMK A01 T01790132  RH  074%=      5-min Rain = 0
KPD4 140742Z 07004KT 18/13 A3021 RMK A01 T01780132  RH  074%=      5-min Rain = 0
KPD4 140743Z 07003KT 18/13 A3021 RMK A01 T01770132  RH  075%=      5-min Rain = 0
KPD4 140744Z 07003KT 18/13 A3021 RMK A01 T01770132  RH  075%=      5-min Rain = 0
KPD4 140745Z 07003KT 18/13 A3021 RMK A01 T01770132  RH  075%=      5-min Rain = 0
KPD4 140746Z 07003KT 18/13 A3021 RMK A01 T01770132  RH  075%=      5-min Rain = 0
KPD4 140747Z 07003KT 18/13 A3021 RMK A01 T01760132  RH  075%=      5-min Rain = 0
KPD4 140748Z 06003KT 18/13 A3021 RMK A01 T01770131  RH  075%=      5-min Rain = 0
KPD4 140749Z 05003KT 18/13 A3021 RMK A01 T01770131  RH  074%=      5-min Rain = 0
KPD4 140750Z 06003KT 18/13 A3021 RMK A01 T01780132  RH  074%=      5-min Rain = 0
KPD4 140751Z 05003KT 18/13 A3021 RMK A01 T01780132  RH  074%=      5-min Rain = 0
KPD4 140752Z 05003KT 18/13 A3021 RMK A01 T01780132  RH  074%=      5-min Rain = 0
KPD4 140753Z 05003KT 18/13 A3021 RMK A01 T01780133  RH  075%=      5-min Rain = 0
KPD4 140754Z 05003KT 18/13 A3021 RMK A01 T01780133  RH  075%=      5-min Rain = 0
KPD4 140755Z 05003KT 18/13 A3021 RMK A01 T01780134  RH  075%=      5-min Rain = 0
KPD4 140756Z 04004KT 18/13 A3021 RMK A01 T01770134  RH  075%=      5-min Rain = 0
KPD4 140757Z 03004KT 18/13 A3021 RMK A01 T01780134  RH  076%=      5-min Rain = 0
KPD4 140758Z 02004KT 18/14 A3021 RMK A01 T01780135  RH  076%=      5-min Rain = 0
KPD4 140759Z 01004KT 18/13 A3021 RMK A01 T01770134  RH  076%=      5-min Rain = 0
KPD4 140800Z 36004KT 18/14 A3022 RMK A01 T01770137  RH  077%=      5-min Rain = 0
KPD4 140801Z 34006KT 18/14 A3022 RMK A01 T01770138  RH  078%=      5-min Rain = 0
KPD4 140802Z 34007KT 18/14 A3022 RMK A01 T01750139  RH  079%=      5-min Rain = 0
KPD4 140803Z 32010KT 17/14 A3023 RMK A01 T01740139  RH  080%=      5-min Rain = 0
KPD4 140804Z 31011KT 17/14 A3023 RMK A01 T01730138  RH  080%=      5-min Rain = 0
KPD4 140805Z 31012KT 17/14 A3023 RMK A01 T01720137  RH  080%=      5-min Rain = 0
KPD4 140806Z 30012KT 17/14 A3023 RMK A01 T01720137  RH  080%=      5-min Rain = 0
KPD4 140807Z 29011KT 17/14 A3023 RMK A01 T01720138  RH  081%=      5-min Rain = 0
KPD4 140808Z 29009KT 17/14 A3023 RMK A01 T01720138  RH  081%=      5-min Rain = 0
KPD4 140809Z 28007KT 17/14 A3023 RMK A01 T01720138  RH  080%=      5-min Rain = 0
KPD4 140810Z 27007KT 17/14 A3023 RMK A01 T01730139  RH  080%=      5-min Rain = 0
KPD4 140811Z 27008KT 17/14 A3023 RMK A01 T01720138  RH  080%=      5-min Rain = 0
KPD4 140812Z 27009KT 17/14 A3023 RMK A01 T01730139  RH  081%=      5-min Rain = 0
KPD4 140813Z 27009KT 17/14 A3023 RMK A01 T01730139  RH  081%=      5-min Rain = 0
KPD4 140814Z 27009KT 17/14 A3023 RMK A01 T01720140  RH  081%=      5-min Rain = 0
KPD4 140815Z 27010KT 17/14 A3023 RMK A01 T01720140  RH  081%=      5-min Rain = 0
KPD4 140816Z 27010KT 17/14 A3023 RMK A01 T01720140  RH  082%=      5-min Rain = 0
KPD4 140817Z 26010KT 17/14 A3023 RMK A01 T01720140  RH  081%=      5-min Rain = 0
KPD4 140818Z 26010KT 17/14 A3023 RMK A01 T01720140  RH  081%=      5-min Rain = 0
KPD4 140819Z 26009KT 17/14 A3023 RMK A01 T01720140  RH  081%=      5-min Rain = 0
KPD4 140820Z 26008KT 17/14 A3023 RMK A01 T01730140  RH  081%=      5-min Rain = 0
KPD4 140821Z 26009KT 17/14 A3023 RMK A01 T01730140  RH  081%=      5-min Rain = 0
KPD4 140822Z 27010KT 17/14 A3023 RMK A01 T01730141  RH  081%=      5-min Rain = 0
KPD4 140823Z 27010KT 17/14 A3023 RMK A01 T01730140  RH  081%=      5-min Rain = 0
KPD4 140824Z 27009KT 17/14 A3023 RMK A01 T01740140  RH  081%=      5-min Rain = 0
KPD4 140825Z 28008KT 17/14 A3023 RMK A01 T01740141  RH  081%=      5-min Rain = 0
KPD4 140826Z 28008KT 17/14 A3024 RMK A01 T01740141  RH  081%=      5-min Rain = 0
KPD4 140827Z 28008KT 17/14 A3024 RMK A01 T01740140  RH  081%=      5-min Rain = 0
KPD4 140828Z 28007KT 18/14 A3024 RMK A01 T01750141  RH  081%=      5-min Rain = 0
KPD4 140829Z 29008KT 18/14 A3024 RMK A01 T01750142  RH  081%=      5-min Rain = 0
KPD4 140830Z 32010G15KT 18/14 A3025 RMK A01 T01750142  RH  081%=      5-min Rain = 0
KPD4 140831Z 34016KT 18/14 A3027 RMK A01 T01750144  RH  082%=      5-min Rain = 0
KPD4 140832Z 34015KT 18/14 A3027 RMK A01 T01750143  RH  082%=      5-min Rain = 0
KPD4 140833Z 34011KT 18/14 A3026 RMK A01 T01750142  RH  081%=      5-min Rain = 0
KPD4 140834Z 33006KT 18/14 A3025 RMK A01 T01750141  RH  080%=      5-min Rain = 0
KPD4 140835Z 33011KT 18/14 A3026 RMK A01 T01760140  RH  080%=      5-min Rain = 0
KPD4 140836Z 34014KT 18/14 A3026 RMK A01 T01760142  RH  080%=      5-min Rain = 0
KPD4 140837Z 34016KT 18/14 A3026 RMK A01 T01760141  RH  080%=      5-min Rain = 0
KPD4 140838Z 34016G21KT 18/14 A3026 RMK A01 T01770141  RH  080%=      5-min Rain = 0
KPD4 140839Z 34015KT 18/14 A3025 RMK A01 T01770140  RH  078%=      5-min Rain = 0
KPD4 140840Z 34014KT 18/14 A3026 RMK A01 T01780140  RH  078%=      5-min Rain = 0
KPD4 140841Z 34014G19KT 18/14 A3026 RMK A01 T01780142  RH  079%=      5-min Rain = 0
KPD4 140842Z 34018KT 18/14 A3026 RMK A01 T01770141  RH  079%=      5-min Rain = 0
KPD4 140843Z 34017KT 18/14 A3027 RMK A01 T01780140  RH  079%=      5-min Rain = 0
KPD4 140844Z 33016G21KT 18/14 A3027 RMK A01 T01780140  RH  078%=      5-min Rain = 0
KPD4 140845Z 33017KT 18/14 A3027 RMK A01 T01790140  RH  078%=      5-min Rain = 0
KPD4 140846Z 33018KT 18/14 A3027 RMK A01 T01790140  RH  078%=      5-min Rain = 0
KPD4 140847Z 33016KT 18/14 A3027 RMK A01 T01800141  RH  078%=      5-min Rain = 0
KPD4 140848Z 33015KT 18/14 A3027 RMK A01 T01800141  RH  078%=      5-min Rain = 0
KPD4 140849Z 33018KT 18/14 A3027 RMK A01 T01800141  RH  078%=      5-min Rain = 0
KPD4 140850Z 33016KT 18/14 A3027 RMK A01 T01810142  RH  078%=      5-min Rain = 0
KPD4 140851Z 33016KT 18/14 A3027 RMK A01 T01810143  RH  078%=      5-min Rain = 0
KPD4 140852Z 33016KT 18/14 A3027 RMK A01 T01810143  RH  078%=      5-min Rain = 0
KPD4 140853Z 33016KT 18/14 A3027 RMK A01 T01810143  RH  078%=      5-min Rain = 0
KPD4 140854Z 33014KT 18/14 A3027 RMK A01 T01810144  RH  079%=      5-min Rain = 0
KPD4 140855Z 33014KT 18/15 A3027 RMK A01 T01820145  RH  079%=      5-min Rain = 0
KPD4 140856Z 33016KT 18/15 A3026 RMK A01 T01820145  RH  079%=      5-min Rain = 0
KPD4 140857Z 33014KT 18/15 A3026 RMK A01 T01820145  RH  079%=      5-min Rain = 0
KPD4 140858Z 33015KT 18/15 A3026 RMK A01 T01820145  RH  079%=      5-min Rain = 0
KPD4 140859Z 33013KT 18/15 A3026 RMK A01 T01820145  RH  079%=      5-min Rain = 0
KPD4 140900Z 33014KT 18/15 A3026 RMK A01 T01820146  RH  079%=      5-min Rain = 0
KPD4 140901Z 33013KT 18/15 A3026 RMK A01 T01820146  RH  079%=      5-min Rain = 0
KPD4 140902Z 33013KT 18/15 A3026 RMK A01 T01820146  RH  079%=      5-min Rain = 0
KPD4 140903Z 33011KT 18/15 A3026 RMK A01 T01820146  RH  079%=      5-min Rain = 0
KPD4 140904Z 33013KT 18/15 A3025 RMK A01 T01830146  RH  079%=      5-min Rain = 0
KPD4 140905Z 33012KT 18/15 A3025 RMK A01 T01830146  RH  079%=      5-min Rain = 0
KPD4 140906Z 32012KT 18/15 A3025 RMK A01 T01830146  RH  079%=      5-min Rain = 0
KPD4 140907Z 32013KT 18/15 A3025 RMK A01 T01830147  RH  079%=      5-min Rain = 0
KPD4 140908Z 33013KT 18/15 A3025 RMK A01 T01830147  RH  079%=      5-min Rain = 0
KPD4 140909Z 32014KT 18/15 A3025 RMK A01 T01840147  RH  079%=      5-min Rain = 0
KPD4 140910Z 33013KT 18/15 A3025 RMK A01 T01840147  RH  079%=      5-min Rain = 0
KPD4 140911Z 33013KT 19/15 A3025 RMK A01 T01850148  RH  079%=      5-min Rain = 0
KPD4 140912Z 34015KT 19/15 A3025 RMK A01 T01850148  RH  079%=      5-min Rain = 0
KPD4 140913Z 33014KT 19/15 A3025 RMK A01 T01850149  RH  079%=      5-min Rain = 0
KPD4 140914Z 34013KT 19/15 A3025 RMK A01 T01850150  RH  080%=      5-min Rain = 0
KPD4 140915Z 34017KT 18/15 A3025 RMK A01 T01840150  RH  081%=      5-min Rain = 0
KPD4 140916Z 34016G21KT 18/15 A3024 RMK A01 T01840151  RH  081%=      5-min Rain = 0
KPD4 140917Z 34018KT 18/15 A3024 RMK A01 T01840152  RH  082%=      5-min Rain = 0
KPD4 140918Z 34018KT 18/15 A3024 RMK A01 T01840153  RH  082%=      5-min Rain = 0
KPD4 140919Z 35017KT 18/15 A3024 RMK A01 T01840154  RH  083%=      5-min Rain = 0
KPD4 140920Z 35018KT 18/15 A3024 RMK A01 T01830154  RH  083%=      5-min Rain = 0
KPD4 140921Z 35018KT 18/16 A3024 RMK A01 T01840155  RH  083%=      5-min Rain = 0
KPD4 140922Z 35016KT 18/16 A3024 RMK A01 T01830155  RH  083%=      5-min Rain = 0
KPD4 140923Z 35016KT 18/16 A3024 RMK A01 T01840156  RH  084%=      5-min Rain = 0
KPD4 140924Z 35016KT 18/16 A3024 RMK A01 T01840157  RH  084%=      5-min Rain = 0
KPD4 140925Z 36015KT 18/16 A3024 RMK A01 T01840157  RH  084%=      5-min Rain = 0
KPD4 140926Z 36014KT 18/16 A3024 RMK A01 T01840157  RH  084%=      5-min Rain = 0
KPD4 140927Z 36014KT 19/16 A3023 RMK A01 T01850156  RH  083%=      5-min Rain = 0
KPD4 140928Z 36014KT 19/16 A3023 RMK A01 T01870155  RH  082%=      5-min Rain = 0
KPD4 140929Z 36014KT 19/16 A3023 RMK A01 T01880156  RH  082%=      5-min Rain = 0
KPD4 140930Z 36014KT 19/16 A3023 RMK A01 T01890156  RH  081%=      5-min Rain = 0
KPD4 140931Z 36014KT 19/16 A3022 RMK A01 T01900155  RH  080%=      5-min Rain = 0
KPD4 140932Z 36015KT 19/16 A3022 RMK A01 T01910155  RH  080%=      5-min Rain = 0
KPD4 140933Z 00015KT 19/16 A3022 RMK A01 T01920155  RH  079%=      5-min Rain = 0
KPD4 140934Z 01017KT 19/16 A3022 RMK A01 T01930155  RH  079%=      5-min Rain = 0
KPD4 140935Z 01016KT 19/15 A3022 RMK A01 T01940153  RH  077%=      5-min Rain = 0
KPD4 140936Z 01016KT 20/15 A3021 RMK A01 T01950153  RH  077%=      5-min Rain = 0.01
KPD4 140937Z 01016KT 20/15 A3022 RMK A01 T01960153  RH  076%=      5-min Rain = 0
KPD4 140938Z 01016KT 20/15 A3022 RMK A01 T01970153  RH  076%=      5-min Rain = 0
KPD4 140939Z 01014KT 20/15 A3022 RMK A01 T01970153  RH  076%=      5-min Rain = 0
KPD4 140940Z 00014KT 20/15 A3022 RMK A01 T01970154  RH  076%=      5-min Rain = 0
KPD4 140941Z 00014KT 20/16 A3022 RMK A01 T01960155  RH  077%=      5-min Rain = 0
KPD4 140942Z 36014KT 20/16 A3022 RMK A01 T01950155  RH  078%=      5-min Rain = 0
KPD4 140943Z 36015KT 20/16 A3022 RMK A01 T01950155  RH  078%=      5-min Rain = 0
KPD4 140944Z 35016KT 19/16 A3022 RMK A01 T01940155  RH  078%=      5-min Rain = 0
KPD4 140945Z 34015KT 19/16 A3022 RMK A01 T01940156  RH  079%=      5-min Rain = 0
KPD4 140946Z 35014KT 19/16 A3022 RMK A01 T01930156  RH  079%=      5-min Rain = 0
KPD4 140947Z 34013KT 19/16 A3022 RMK A01 T01930157  RH  079%=      5-min Rain = 0
KPD4 140948Z 34013KT 19/16 A3023 RMK A01 T01920157  RH  080%=      5-min Rain = 0.01
KPD4 140949Z 34014KT 19/16 A3023 RMK A01 T01920157  RH  080%=      5-min Rain = 0
KPD4 140950Z 34012KT 19/16 A3023 RMK A01 T01920157  RH  080%=      5-min Rain = 0
KPD4 140951Z 34012KT 19/16 A3022 RMK A01 T01910155  RH  079%=      5-min Rain = 0
KPD4 140952Z 34009KT 19/16 A3022 RMK A01 T01920155  RH  079%=      5-min Rain = 0
KPD4 140953Z 34010KT 19/15 A3022 RMK A01 T01930153  RH  078%=      5-min Rain = 0
KPD4 140954Z 34010KT 20/15 A3022 RMK A01 T01950151  RH  076%=      5-min Rain = 0
KPD4 140955Z 34009KT 20/15 A3022 RMK A01 T01970150  RH  074%=      5-min Rain = 0
KPD4 140956Z 35009KT 20/15 A3022 RMK A01 T01980151  RH  074%=      5-min Rain = 0
KPD4 140957Z 35008KT 20/15 A3022 RMK A01 T01980151  RH  074%=      5-min Rain = 0
KPD4 140958Z 35008KT 20/15 A3022 RMK A01 T01980152  RH  075%=      5-min Rain = 0
KPD4 140959Z 35008KT 20/16 A3022 RMK A01 T01980155  RH  076%=      5-min Rain = 0
KPD4 141000Z 35008KT 20/16 A3022 RMK A01 T01960155  RH  077%=      5-min Rain = 0
KPD4 141001Z 35007KT 20/16 A3022 RMK A01 T01950156  RH  078%=      5-min Rain = 0
KPD4 141002Z 35008KT 19/16 A3022 RMK A01 T01940156  RH  079%=      5-min Rain = 0
KPD4 141003Z 35007KT 19/16 A3022 RMK A01 T01930156  RH  079%=      5-min Rain = 0
KPD4 141004Z 34007KT 19/16 A3022 RMK A01 T01930156  RH  079%=      5-min Rain = 0
KPD4 141005Z 34007KT 19/16 A3022 RMK A01 T01930156  RH  079%=      5-min Rain = 0
KPD4 141006Z 33007KT 19/16 A3022 RMK A01 T01930156  RH  079%=      5-min Rain = 0
KPD4 141007Z 33007KT 19/16 A3021 RMK A01 T01940157  RH  079%=      5-min Rain = 0
KPD4 141008Z 33007KT 19/16 A3021 RMK A01 T01930157  RH  080%=      5-min Rain = 0
KPD4 141009Z 33007KT 19/16 A3021 RMK A01 T01920159  RH  081%=      5-min Rain = 0
KPD4 141010Z 33007KT 19/16 A3021 RMK A01 T01910159  RH  082%=      5-min Rain = 0
KPD4 141011Z 33005KT 19/16 A3021 RMK A01 T01900160  RH  082%=      5-min Rain = 0
KPD4 141012Z 33005KT 19/16 A3021 RMK A01 T01890160  RH  083%=      5-min Rain = 0
KPD4 141013Z 34005KT 19/16 A3021 RMK A01 T01880161  RH  084%=      5-min Rain = 0
KPD4 141014Z 34005KT 19/16 A3021 RMK A01 T01880161  RH  084%=      5-min Rain = 0
KPD4 141015Z 34005KT 19/16 A302 RMK A01 T01880158  RH  083%=      5-min Rain = 0
KPD4 141016Z 35005KT 19/16 A302 RMK A01 T01890157  RH  082%=      5-min Rain = 0
KPD4 141017Z 00005KT 19/16 A302 RMK A01 T01900155  RH  080%=      5-min Rain = 0
KPD4 141018Z 00004KT 19/15 A302 RMK A01 T01910153  RH  078%=      5-min Rain = 0
KPD4 141019Z 06002KT 19/15 A3019 RMK A01 T01920154  RH  079%=      5-min Rain = 0
KPD4 141020Z 13003KT 19/16 A3019 RMK A01 T01920161  RH  082%=      5-min Rain = 0
KPD4 141021Z 12002KT 19/16 A3019 RMK A01 T01900159  RH  082%=      5-min Rain = 0
KPD4 141022Z 11003KT 19/16 A3019 RMK A01 T01890157  RH  081%=      5-min Rain = 0
KPD4 141023Z 14004KT 19/16 A3019 RMK A01 T01890155  RH  081%=      5-min Rain = 0
KPD4 141024Z 15002KT 19/16 A3019 RMK A01 T01890157  RH  081%=      5-min Rain = 0
KPD4 141025Z 15001KT 19/16 A3019 RMK A01 T01890156  RH  081%=      5-min Rain = 0
KPD4 141026Z 23001KT 19/16 A302 RMK A01 T01890158  RH  082%=      5-min Rain = 0
KPD4 141027Z 25002KT 19/16 A302 RMK A01 T01890160  RH  083%=      5-min Rain = 0
KPD4 141028Z 25002KT 19/16 A302 RMK A01 T01890162  RH  084%=      5-min Rain = 0
KPD4 141029Z 25003KT 19/16 A302 RMK A01 T01880163  RH  085%=      5-min Rain = 0
KPD4 141030Z 25004KT 19/16 A302 RMK A01 T01880162  RH  085%=      5-min Rain = 0
KPD4 141031Z 24004KT 19/16 A302 RMK A01 T01870161  RH  085%=      5-min Rain = 0
KPD4 141032Z 23005KT 19/16 A3019 RMK A01 T01870161  RH  085%=      5-min Rain = 0
KPD4 141033Z 23006KT 19/16 A3019 RMK A01 T01870161  RH  085%=      5-min Rain = 0
KPD4 141034Z 24009KT 19/16 A3019 RMK A01 T01870161  RH  085%=      5-min Rain = 0
KPD4 141035Z 24009KT 19/16 A3019 RMK A01 T01870161  RH  085%=      5-min Rain = 0
KPD4 141036Z 24008KT 19/16 A3019 RMK A01 T01860161  RH  085%=      5-min Rain = 0
KPD4 141037Z 25008KT 19/16 A3019 RMK A01 T01860160  RH  085%=      5-min Rain = 0
KPD4 141038Z 24007KT 19/16 A3019 RMK A01 T01860160  RH  085%=      5-min Rain = 0
KPD4 141039Z 24006KT 19/16 A3019 RMK A01 T01860160  RH  085%=      5-min Rain = 0
KPD4 141040Z 24006KT 19/16 A3019 RMK A01 T01860160  RH  084%=      5-min Rain = 0
KPD4 141041Z 24006KT 19/16 A3019 RMK A01 T01860159  RH  084%=      5-min Rain = 0
KPD4 141042Z 24006KT 19/16 A3019 RMK A01 T01860160  RH  085%=      5-min Rain = 0
KPD4 141043Z 24007KT 19/16 A3019 RMK A01 T01860160  RH  085%=      5-min Rain = 0
KPD4 141044Z 24009KT 19/16 A3019 RMK A01 T01860159  RH  084%=      5-min Rain = 0
KPD4 141045Z 24009KT 19/16 A3019 RMK A01 T01870158  RH  083%=      5-min Rain = 0
KPD4 141046Z 23009KT 19/16 A3019 RMK A01 T01880159  RH  083%=      5-min Rain = 0
KPD4 141047Z 23009KT 19/16 A3019 RMK A01 T01880161  RH  084%=      5-min Rain = 0
KPD4 141048Z 23009KT 19/16 A3019 RMK A01 T01870160  RH  084%=      5-min Rain = 0
KPD4 141049Z 24009KT 19/16 A3019 RMK A01 T01870159  RH  084%=      5-min Rain = 0
KPD4 141050Z 24010KT 19/16 A3019 RMK A01 T01880156  RH  082%=      5-min Rain = 0
KPD4 141051Z 24011KT 19/16 A3019 RMK A01 T01890156  RH  081%=      5-min Rain = 0
KPD4 141052Z 24010KT 19/15 A3019 RMK A01 T01910154  RH  079%=      5-min Rain = 0
KPD4 141053Z 24009KT 19/16 A3019 RMK A01 T01920155  RH  079%=      5-min Rain = 0
KPD4 141054Z 24010KT 19/16 A3019 RMK A01 T01920155  RH  079%=      5-min Rain = 0
KPD4 141055Z 24010KT 19/15 A3019 RMK A01 T01920152  RH  078%=      5-min Rain = 0
KPD4 141056Z 24010KT 19/15 A3019 RMK A01 T01930151  RH  077%=      5-min Rain = 0
KPD4 141057Z 24010KT 19/15 A3019 RMK A01 T01940151  RH  076%=      5-min Rain = 0
KPD4 141058Z 25010KT 19/15 A3019 RMK A01 T01940151  RH  076%=      5-min Rain = 0
KPD4 141059Z 25010KT 19/15 A3019 RMK A01 T01940152  RH  076%=      5-min Rain = 0
KPD4 141100Z 25011KT 19/15 A3019 RMK A01 T01930151  RH  077%=      5-min Rain = 0
KPD4 141101Z 24012KT 19/15 A3019 RMK A01 T01930149  RH  075%=      5-min Rain = 0
KPD4 141102Z 24012KT 19/15 A3019 RMK A01 T01940149  RH  075%=      5-min Rain = 0
KPD4 141103Z 24013KT 19/15 A3019 RMK A01 T01940149  RH  075%=      5-min Rain = 0
KPD4 141104Z 24013KT 19/15 A3019 RMK A01 T01930148  RH  075%=      5-min Rain = 0
KPD4 141105Z 24013KT 19/15 A3019 RMK A01 T01930148  RH  075%=      5-min Rain = 0
KPD4 141106Z 24011KT 19/15 A3018 RMK A01 T01940149  RH  075%=      5-min Rain = 0
KPD4 141107Z 24011KT 19/15 A3018 RMK A01 T01940148  RH  075%=      5-min Rain = 0
KPD4 141108Z 24011KT 19/15 A3018 RMK A01 T01940148  RH  074%=      5-min Rain = 0
KPD4 141109Z 24011KT 19/15 A3018 RMK A01 T01940148  RH  074%=      5-min Rain = 0
KPD4 141110Z 24011KT 19/15 A3018 RMK A01 T01940147  RH  074%=      5-min Rain = 0
KPD4 141111Z 24011KT 20/15 A3018 RMK A01 T01950145  RH  073%=      5-min Rain = 0
KPD4 141112Z 25011KT 20/14 A3018 RMK A01 T01960144  RH  072%=      5-min Rain = 0
KPD4 141113Z 25012KT 20/14 A3019 RMK A01 T01970143  RH  071%=      5-min Rain = 0
KPD4 141114Z 25012KT 20/14 A3019 RMK A01 T01980142  RH  070%=      5-min Rain = 0
KPD4 141115Z 25012KT 20/14 A3019 RMK A01 T01990141  RH  069%=      5-min Rain = 0
KPD4 141116Z 25012KT 20/14 A3019 RMK A01 T02000141  RH  068%=      5-min Rain = 0
KPD4 141117Z 25012KT 20/14 A3019 RMK A01 T02020140  RH  068%=      5-min Rain = 0
KPD4 141118Z 25012KT 20/14 A3019 RMK A01 T02030140  RH  067%=      5-min Rain = 0
KPD4 141119Z 25012KT 20/14 A3019 RMK A01 T02030140  RH  067%=      5-min Rain = 0
KPD4 141120Z 25013KT 20/14 A3019 RMK A01 T02040140  RH  067%=      5-min Rain = 0
KPD4 141121Z 25014KT 20/14 A3019 RMK A01 T02040139  RH  066%=      5-min Rain = 0
KPD4 141122Z 25013KT 21/14 A3019 RMK A01 T02050136  RH  065%=      5-min Rain = 0
KPD4 141123Z 25014KT 21/14 A3019 RMK A01 T02060135  RH  064%=      5-min Rain = 0
KPD4 141124Z 25014KT 21/14 A3019 RMK A01 T02070137  RH  064%=      5-min Rain = 0
KPD4 141125Z 25014KT 21/14 A3019 RMK A01 T02070138  RH  065%=      5-min Rain = 0
KPD4 141126Z 26014KT 21/14 A3019 RMK A01 T02060142  RH  066%=      5-min Rain = 0
KPD4 141127Z 26015KT 21/14 A3019 RMK A01 T02050141  RH  067%=      5-min Rain = 0
KPD4 141128Z 27014KT 20/14 A3019 RMK A01 T02040140  RH  067%=      5-min Rain = 0
KPD4 141129Z 27014KT 20/14 A3019 RMK A01 T02040140  RH  066%=      5-min Rain = 0
KPD4 141130Z 27013KT 20/14 A3019 RMK A01 T02040141  RH  067%=      5-min Rain = 0
KPD4 141131Z 27014KT 20/14 A3019 RMK A01 T02040142  RH  068%=      5-min Rain = 0
KPD4 141132Z 27015KT 20/14 A302 RMK A01 T02030142  RH  068%=      5-min Rain = 0
KPD4 141133Z 27016KT 20/14 A302 RMK A01 T02020144  RH  069%=      5-min Rain = 0
KPD4 141134Z 27016KT 20/14 A302 RMK A01 T02010144  RH  069%=      5-min Rain = 0
KPD4 141135Z 27015KT 20/14 A302 RMK A01 T02010143  RH  069%=      5-min Rain = 0
KPD4 141136Z 27016KT 20/14 A302 RMK A01 T02010142  RH  069%=      5-min Rain = 0
KPD4 141137Z 26017KT 20/14 A302 RMK A01 T02030143  RH  068%=      5-min Rain = 0
KPD4 141138Z 26017KT 20/14 A302 RMK A01 T02030143  RH  068%=      5-min Rain = 0
KPD4 141139Z 26017KT 20/14 A302 RMK A01 T02030144  RH  069%=      5-min Rain = 0
KPD4 141140Z 26018KT 20/15 A302 RMK A01 T02020145  RH  070%=      5-min Rain = 0
KPD4 141141Z 26020KT 20/14 A302 RMK A01 T02010144  RH  069%=      5-min Rain = 0
KPD4 141142Z 26020KT 20/14 A3019 RMK A01 T02010144  RH  069%=      5-min Rain = 0
KPD4 141143Z 26020KT 20/15 A3019 RMK A01 T02020145  RH  070%=      5-min Rain = 0
KPD4 141144Z 26019KT 20/15 A3019 RMK A01 T02010147  RH  071%=      5-min Rain = 0
KPD4 141145Z 26019KT 20/15 A3019 RMK A01 T02010149  RH  072%=      5-min Rain = 0
KPD4 141146Z 26020KT 20/15 A3019 RMK A01 T01990149  RH  073%=      5-min Rain = 0
KPD4 141147Z 26018KT 20/15 A3019 RMK A01 T01990149  RH  073%=      5-min Rain = 0
KPD4 141148Z 25019KT 20/15 A3019 RMK A01 T01980150  RH  073%=      5-min Rain = 0
KPD4 141149Z 25018KT 20/15 A3019 RMK A01 T01980148  RH  073%=      5-min Rain = 0
KPD4 141150Z 26019KT 20/15 A3019 RMK A01 T01980147  RH  072%=      5-min Rain = 0
KPD4 141151Z 25018KT 20/15 A3019 RMK A01 T01990147  RH  072%=      5-min Rain = 0
KPD4 141152Z 25018KT 20/15 A3019 RMK A01 T01990148  RH  072%=      5-min Rain = 0
KPD4 141153Z 25017KT 20/15 A3019 RMK A01 T02000147  RH  072%=      5-min Rain = 0
KPD4 141154Z 25019G24KT 20/15 A3019 RMK A01 T02000147  RH  072%=      5-min Rain = 0
KPD4 141155Z 25018G24KT 20/15 A3019 RMK A01 T02000148  RH  072%=      5-min Rain = 0
KPD4 141156Z 25019KT 20/15 A3019 RMK A01 T02000147  RH  072%=      5-min Rain = 0
KPD4 141157Z 25019KT 20/15 A3019 RMK A01 T02000146  RH  071%=      5-min Rain = 0
KPD4 141158Z 25020G25KT 20/14 A3019 RMK A01 T02010144  RH  070%=      5-min Rain = 0
KPD4 141159Z 25021G26KT 20/14 A3019 RMK A01 T02020142  RH  068%=      5-min Rain = 0
KPD4 141200Z 25021KT 20/14 A3019 RMK A01 T02040142  RH  068%=      5-min Rain = 0
KPD4 141201Z 26022KT 20/14 A3018 RMK A01 T02040142  RH  068%=      5-min Rain = 0
KPD4 141202Z 25022KT 20/14 A3019 RMK A01 T02040143  RH  068%=      5-min Rain = 0
KPD4 141203Z 25020KT 21/14 A3019 RMK A01 T02050143  RH  068%=      5-min Rain = 0
KPD4 141204Z 25019KT 20/14 A3019 RMK A01 T02040144  RH  068%=      5-min Rain = 0
KPD4 141205Z 25019KT 20/14 A3018 RMK A01 T02040144  RH  069%=      5-min Rain = 0
KPD4 141206Z 25017KT 20/14 A3018 RMK A01 T02030144  RH  069%=      5-min Rain = 0
KPD4 141207Z 25017KT 20/14 A3018 RMK A01 T02030143  RH  068%=      5-min Rain = 0
KPD4 141208Z 25017KT 20/14 A3018 RMK A01 T02030142  RH  068%=      5-min Rain = 0
KPD4 141209Z 25016KT 20/14 A3018 RMK A01 T02030142  RH  068%=      5-min Rain = 0
KPD4 141210Z 25016KT 20/14 A3018 RMK A01 T02030142  RH  068%=      5-min Rain = 0
KPD4 141211Z 25017KT 20/14 A3018 RMK A01 T02040141  RH  067%=      5-min Rain = 0
KPD4 141212Z 25017KT 21/14 A3018 RMK A01 T02050139  RH  066%=      5-min Rain = 0
KPD4 141213Z 25016KT 21/14 A3018 RMK A01 T02070140  RH  066%=      5-min Rain = 0
KPD4 141214Z 25017KT 21/14 A3018 RMK A01 T02070140  RH  065%=      5-min Rain = 0
KPD4 141215Z 25017KT 21/14 A3018 RMK A01 T02070139  RH  065%=      5-min Rain = 0
KPD4 141216Z 24017KT 21/14 A3018 RMK A01 T02080137  RH  064%=      5-min Rain = 0
KPD4 141217Z 24016KT 21/14 A3018 RMK A01 T02090139  RH  064%=      5-min Rain = 0
KPD4 141218Z 23016KT 21/14 A3018 RMK A01 T02090139  RH  064%=      5-min Rain = 0
KPD4 141219Z 23015KT 21/14 A3018 RMK A01 T02090140  RH  065%=      5-min Rain = 0
KPD4 141220Z 23016KT 21/14 A3018 RMK A01 T02080139  RH  064%=      5-min Rain = 0
KPD4 141221Z 23015KT 21/14 A3018 RMK A01 T02090137  RH  064%=      5-min Rain = 0
KPD4 141222Z 22013KT 21/14 A3018 RMK A01 T02090137  RH  063%=      5-min Rain = 0
KPD4 141223Z 22013KT 21/14 A3018 RMK A01 T02100136  RH  062%=      5-min Rain = 0
KPD4 141224Z 21011KT 21/14 A3018 RMK A01 T02110136  RH  062%=      5-min Rain = 0
KPD4 141225Z 21013KT 21/14 A3018 RMK A01 T02110137  RH  063%=      5-min Rain = 0
KPD4 141226Z 22012KT 21/14 A3018 RMK A01 T02110138  RH  063%=      5-min Rain = 0
KPD4 141227Z 22013KT 21/14 A3018 RMK A01 T02100139  RH  064%=      5-min Rain = 0
KPD4 141228Z 23014KT 21/14 A3018 RMK A01 T02090139  RH  064%=      5-min Rain = 0
KPD4 141229Z 24014KT 21/14 A3018 RMK A01 T02090139  RH  064%=      5-min Rain = 0
KPD4 141230Z 24015KT 21/14 A3018 RMK A01 T02080139  RH  064%=      5-min Rain = 0
KPD4 141231Z 23014KT 21/14 A3019 RMK A01 T02090138  RH  064%=      5-min Rain = 0
KPD4 141232Z 24013KT 21/14 A3019 RMK A01 T02090139  RH  064%=      5-min Rain = 0
KPD4 141233Z 23013KT 21/14 A3018 RMK A01 T02090140  RH  065%=      5-min Rain = 0
KPD4 141234Z 23012KT 21/14 A3018 RMK A01 T02080141  RH  066%=      5-min Rain = 0
KPD4 141235Z 23010KT 21/14 A3018 RMK A01 T02070141  RH  066%=      5-min Rain = 0
KPD4 141236Z 22009KT 21/14 A3018 RMK A01 T02060141  RH  066%=      5-min Rain = 0
KPD4 141237Z 21007KT 21/14 A3017 RMK A01 T02060142  RH  067%=      5-min Rain = 0
KPD4 141238Z 14004KT 21/14 A3018 RMK A01 T02050140  RH  066%=      5-min Rain = 0
KPD4 141239Z 05009KT 21/14 A3019 RMK A01 T02050142  RH  067%=      5-min Rain = 0
KPD4 141240Z 04013KT 21/14 A302 RMK A01 T02050141  RH  067%=      5-min Rain = 0
KPD4 141241Z 02015KT 21/14 A302 RMK A01 T02060139  RH  065%=      5-min Rain = 0
KPD4 141242Z 35016KT 21/14 A302 RMK A01 T02070138  RH  065%=      5-min Rain = 0
KPD4 141243Z 02011G16KT 21/14 A3021 RMK A01 T02080137  RH  064%=      5-min Rain = 0
KPD4 141244Z 04012G17KT 21/13 A3021 RMK A01 T02090128  RH  060%=      5-min Rain = 0
KPD4 141245Z 04016G21KT 22/12 A3021 RMK A01 T02150116  RH  053%=      5-min Rain = 0
KPD4 141246Z 04012KT 23/11 A3022 RMK A01 T02260111  RH  048%=      5-min Rain = 0
KPD4 141247Z 00011KT 24/11 A3023 RMK A01 T02350114  RH  047%=      5-min Rain = 0
KPD4 141248Z 36006KT 24/12 A3023 RMK A01 T02360120  RH  048%=      5-min Rain = 0
KPD4 141249Z 36009KT 23/12 A3023 RMK A01 T02340121  RH  049%=      5-min Rain = 0
KPD4 141250Z 02011KT 23/13 A3024 RMK A01 T02310125  RH  051%=      5-min Rain = 0
KPD4 141251Z 03013KT 23/13 A3024 RMK A01 T02260132  RH  055%=      5-min Rain = 0
KPD4 141252Z 03014KT 22/13 A3024 RMK A01 T02210134  RH  058%=      5-min Rain = 0
KPD4 141253Z 02015KT 22/14 A3024 RMK A01 T02170137  RH  060%=      5-min Rain = 0
KPD4 141254Z 03013KT 21/14 A3023 RMK A01 T02130139  RH  063%=      5-min Rain = 0
KPD4 141255Z 04013KT 21/14 A3023 RMK A01 T02100142  RH  065%=      5-min Rain = 0
KPD4 141256Z 04015KT 21/15 A3023 RMK A01 T02070145  RH  068%=      5-min Rain = 0
KPD4 141257Z 05016KT 20/15 A3023 RMK A01 T02030148  RH  071%=      5-min Rain = 0
KPD4 141258Z 05017KT 20/15 A3023 RMK A01 T02000149  RH  073%=      5-min Rain = 0
KPD4 141259Z 04018KT 20/15 A3023 RMK A01 T01980151  RH  074%=      5-min Rain = 0
KPD4 141300Z 03017KT 20/15 A3023 RMK A01 T01960151  RH  075%=      5-min Rain = 0
KPD4 141301Z 03014KT 20/15 A3023 RMK A01 T01950152  RH  076%=      5-min Rain = 0
KPD4 141302Z 03013KT 20/15 A3023 RMK A01 T01950151  RH  076%=      5-min Rain = 0
KPD4 141303Z 02014KT 20/15 A3023 RMK A01 T01950151  RH  076%=      5-min Rain = 0
KPD4 141304Z 01014KT 20/15 A3023 RMK A01 T01950147  RH  074%=      5-min Rain = 0
KPD4 141305Z 01012KT 20/15 A3023 RMK A01 T01970147  RH  073%=      5-min Rain = 0
KPD4 141306Z 01011KT 20/15 A3024 RMK A01 T01980147  RH  072%=      5-min Rain = 0
KPD4 141307Z 01012KT 20/15 A3024 RMK A01 T01990146  RH  071%=      5-min Rain = 0
KPD4 141308Z 02013KT 20/15 A3024 RMK A01 T02000145  RH  070%=      5-min Rain = 0
KPD4 141309Z 02018KT 20/15 A3024 RMK A01 T02010147  RH  071%=      5-min Rain = 0
KPD4 141310Z 00016KT 20/15 A3024 RMK A01 T02000149  RH  072%=      5-min Rain = 0
KPD4 141311Z 35015KT 20/15 A3024 RMK A01 T01990149  RH  073%=      5-min Rain = 0
KPD4 141312Z 35015KT 20/15 A3024 RMK A01 T01990149  RH  073%=      5-min Rain = 0
KPD4 141313Z 35015G20KT 20/15 A3025 RMK A01 T01980149  RH  073%=      5-min Rain = 0
KPD4 141314Z 35012KT 20/15 A3025 RMK A01 T01980150  RH  074%=      5-min Rain = 0
KPD4 141315Z 36012G17KT 20/15 A3025 RMK A01 T01980151  RH  074%=      5-min Rain = 0
KPD4 141316Z 36013KT 20/15 A3025 RMK A01 T01970153  RH  076%=      5-min Rain = 0
KPD4 141317Z 35012G17KT 20/16 A3025 RMK A01 T01960155  RH  077%=      5-min Rain = 0
KPD4 141318Z 35016KT 20/16 A3025 RMK A01 T01950155  RH  078%=      5-min Rain = 0
KPD4 141319Z 35014KT 19/16 A3025 RMK A01 T01940156  RH  079%=      5-min Rain = 0
KPD4 141320Z 35014KT 19/16 A3025 RMK A01 T01940157  RH  079%=      5-min Rain = 0
KPD4 141321Z 35014KT 19/16 A3025 RMK A01 T01930157  RH  079%=      5-min Rain = 0
KPD4 141322Z 35016KT 19/16 A3025 RMK A01 T01930157  RH  080%=      5-min Rain = 0
KPD4 141323Z 35016KT 19/16 A3025 RMK A01 T01930157  RH  080%=      5-min Rain = 0
KPD4 141324Z 35016KT 19/16 A3025 RMK A01 T01930157  RH  080%=      5-min Rain = 0
KPD4 141325Z 35016KT 19/16 A3024 RMK A01 T01930157  RH  080%=      5-min Rain = 0
KPD4 141326Z 35018KT 19/16 A3024 RMK A01 T01930157  RH  080%=      5-min Rain = 0
KPD4 141327Z 35018KT 19/16 A3024 RMK A01 T01920157  RH  080%=      5-min Rain = 0
KPD4 141328Z 35017KT 19/16 A3024 RMK A01 T01930158  RH  080%=      5-min Rain = 0
KPD4 141329Z 35017KT 19/16 A3024 RMK A01 T01930158  RH  081%=      5-min Rain = 0
KPD4 141330Z 35019KT 19/16 A3024 RMK A01 T01920158  RH  081%=      5-min Rain = 0
KPD4 141331Z 35020KT 19/16 A3024 RMK A01 T01920158  RH  080%=      5-min Rain = 0
KPD4 141332Z 35017KT 19/16 A3024 RMK A01 T01920158  RH  081%=      5-min Rain = 0
KPD4 141333Z 35017KT 19/16 A3024 RMK A01 T01920158  RH  081%=      5-min Rain = 0
KPD4 141334Z 35015KT 19/16 A3024 RMK A01 T01920159  RH  081%=      5-min Rain = 0
KPD4 141335Z 35016KT 19/16 A3024 RMK A01 T01920159  RH  081%=      5-min Rain = 0
KPD4 141336Z 36016KT 19/16 A3024 RMK A01 T01920159  RH  081%=      5-min Rain = 0
KPD4 141337Z 35014KT 19/16 A3025 RMK A01 T01920160  RH  081%=      5-min Rain = 0
KPD4 141338Z 35016G21KT 19/16 A3025 RMK A01 T01920159  RH  081%=      5-min Rain = 0
KPD4 141339Z 35016KT 19/16 A3025 RMK A01 T01920160  RH  081%=      5-min Rain = 0
KPD4 141340Z 36014KT 19/16 A3025 RMK A01 T01920160  RH  082%=      5-min Rain = 0
KPD4 141341Z 35017KT 19/16 A3025 RMK A01 T01920160  RH  081%=      5-min Rain = 0
KPD4 141342Z 35016KT 19/16 A3025 RMK A01 T01920159  RH  081%=      5-min Rain = 0
KPD4 141343Z 35015KT 19/16 A3025 RMK A01 T01920160  RH  081%=      5-min Rain = 0
KPD4 141344Z 35017KT 19/16 A3025 RMK A01 T01920159  RH  081%=      5-min Rain = 0
KPD4 141345Z 35016KT 19/16 A3025 RMK A01 T01920159  RH  081%=      5-min Rain = 0
KPD4 141346Z 35015KT 19/16 A3025 RMK A01 T01920159  RH  081%=      5-min Rain = 0
KPD4 141347Z 35018KT 19/16 A3025 RMK A01 T01920160  RH  081%=      5-min Rain = 0
KPD4 141348Z 35018KT 19/16 A3025 RMK A01 T01920159  RH  081%=      5-min Rain = 0
KPD4 141349Z 35015KT 19/16 A3025 RMK A01 T01920159  RH  081%=      5-min Rain = 0
KPD4 141350Z 35015KT 19/16 A3025 RMK A01 T01920160  RH  081%=      5-min Rain = 0
KPD4 141351Z 36014G19KT 19/16 A3025 RMK A01 T01920159  RH  081%=      5-min Rain = 0
KPD4 141352Z 36013KT 19/16 A3026 RMK A01 T01920159  RH  081%=      5-min Rain = 0
KPD4 141353Z 36012KT 19/16 A3026 RMK A01 T01920159  RH  081%=      5-min Rain = 0
KPD4 141354Z 00013KT 19/16 A3026 RMK A01 T01930159  RH  081%=      5-min Rain = 0
KPD4 141355Z 36011KT 19/16 A3026 RMK A01 T01930159  RH  081%=      5-min Rain = 0
KPD4 141356Z 00011KT 19/16 A3026 RMK A01 T01930159  RH  081%=      5-min Rain = 0
KPD4 141357Z 00011KT 19/16 A3026 RMK A01 T01930159  RH  081%=      5-min Rain = 0
KPD4 141358Z 00013KT 19/16 A3026 RMK A01 T01930159  RH  081%=      5-min Rain = 0
KPD4 141359Z 00013KT 19/16 A3026 RMK A01 T01940159  RH  080%=      5-min Rain = 0
KPD4 141400Z 00010KT 19/16 A3025 RMK A01 T01940160  RH  080%=      5-min Rain = 0
KPD4 141401Z 00011KT 19/16 A3025 RMK A01 T01940160  RH  081%=      5-min Rain = 0
KPD4 141402Z 00009KT 19/16 A3025 RMK A01 T01940161  RH  081%=      5-min Rain = 0
KPD4 141403Z 00011KT 20/16 A3025 RMK A01 T01950162  RH  081%=      5-min Rain = 0
KPD4 141404Z 00012KT 20/16 A3025 RMK A01 T01950160  RH  080%=      5-min Rain = 0
KPD4 141405Z 00011KT 20/16 A3025 RMK A01 T01950160  RH  080%=      5-min Rain = 0
KPD4 141406Z 00010KT 20/16 A3025 RMK A01 T01950160  RH  081%=      5-min Rain = 0
KPD4 141407Z 36013KT 20/16 A3025 RMK A01 T01950161  RH  081%=      5-min Rain = 0
KPD4 141408Z 35011KT 20/16 A3025 RMK A01 T01950160  RH  080%=      5-min Rain = 0
KPD4 141409Z 35011KT 20/16 A3025 RMK A01 T01960162  RH  080%=      5-min Rain = 0
KPD4 141410Z 35012KT 20/16 A3025 RMK A01 T01960162  RH  080%=      5-min Rain = 0
KPD4 141411Z 35014KT 20/16 A3025 RMK A01 T01970161  RH  080%=      5-min Rain = 0
KPD4 141412Z 35014KT 20/16 A3025 RMK A01 T01970160  RH  079%=      5-min Rain = 0
KPD4 141413Z 36013KT 20/16 A3025 RMK A01 T01970161  RH  080%=      5-min Rain = 0
KPD4 141414Z 35012KT 20/16 A3025 RMK A01 T01970162  RH  080%=      5-min Rain = 0
KPD4 141415Z 35014KT 20/16 A3025 RMK A01 T01970161  RH  080%=      5-min Rain = 0
KPD4 141416Z 35015KT 20/16 A3025 RMK A01 T01970160  RH  079%=      5-min Rain = 0
KPD4 141417Z 35015KT 20/16 A3025 RMK A01 T01970160  RH  079%=      5-min Rain = 0
KPD4 141418Z 35015KT 20/16 A3025 RMK A01 T01970161  RH  079%=      5-min Rain = 0
KPD4 141419Z 35015KT 20/16 A3025 RMK A01 T01970160  RH  079%=      5-min Rain = 0
KPD4 141420Z 34013KT 20/16 A3025 RMK A01 T01980161  RH  080%=      5-min Rain = 0
KPD4 141421Z 35015KT 20/16 A3025 RMK A01 T01980162  RH  080%=      5-min Rain = 0
KPD4 141422Z 35015KT 20/16 A3025 RMK A01 T01990162  RH  079%=      5-min Rain = 0
KPD4 141423Z 35016KT 20/16 A3025 RMK A01 T01990161  RH  079%=      5-min Rain = 0
KPD4 141424Z 35016KT 20/16 A3025 RMK A01 T01990162  RH  079%=      5-min Rain = 0
KPD4 141425Z 35015KT 20/16 A3025 RMK A01 T01990161  RH  079%=      5-min Rain = 0
KPD4 141426Z 35018KT 20/16 A3025 RMK A01 T01990161  RH  078%=      5-min Rain = 0
KPD4 141427Z 35018KT 20/16 A3025 RMK A01 T02000159  RH  077%=      5-min Rain = 0
KPD4 141428Z 35015KT 20/16 A3025 RMK A01 T02000160  RH  078%=      5-min Rain = 0
KPD4 141429Z 35016KT 20/16 A3025 RMK A01 T02000160  RH  078%=      5-min Rain = 0
KPD4 141430Z 35016KT 20/16 A3025 RMK A01 T02010160  RH  077%=      5-min Rain = 0
KPD4 141431Z 35018KT 20/16 A3025 RMK A01 T02010159  RH  077%=      5-min Rain = 0
KPD4 141432Z 35020KT 20/16 A3025 RMK A01 T02010159  RH  077%=      5-min Rain = 0
KPD4 141433Z 34015KT 20/16 A3025 RMK A01 T02010159  RH  077%=      5-min Rain = 0
KPD4 141434Z 34014G20KT 20/16 A3025 RMK A01 T02010161  RH  078%=      5-min Rain = 0
KPD4 141435Z 34017KT 20/16 A3025 RMK A01 T02010160  RH  077%=      5-min Rain = 0
KPD4 141436Z 34017KT 20/16 A3025 RMK A01 T02010159  RH  077%=      5-min Rain = 0
KPD4 141437Z 34015KT 20/16 A3025 RMK A01 T02010159  RH  077%=      5-min Rain = 0
KPD4 141438Z 35017KT 20/16 A3025 RMK A01 T02010160  RH  077%=      5-min Rain = 0
KPD4 141439Z 35015KT 20/16 A3025 RMK A01 T02010159  RH  077%=      5-min Rain = 0
KPD4 141440Z 35015KT 20/16 A3025 RMK A01 T02010159  RH  077%=      5-min Rain = 0
KPD4 141441Z 35015KT 20/16 A3025 RMK A01 T02010159  RH  077%=      5-min Rain = 0
KPD4 141442Z 35014KT 20/16 A3025 RMK A01 T02010159  RH  077%=      5-min Rain = 0
KPD4 141443Z 35015KT 20/16 A3025 RMK A01 T02010159  RH  077%=      5-min Rain = 0
KPD4 141444Z 35014KT 20/16 A3025 RMK A01 T02010159  RH  077%=      5-min Rain = 0
KPD4 141445Z 35014KT 20/16 A3025 RMK A01 T02010159  RH  077%=      5-min Rain = 0
KPD4 141446Z 35011KT 20/16 A3025 RMK A01 T02010160  RH  077%=      5-min Rain = 0
KPD4 141447Z 35012KT 20/16 A3025 RMK A01 T02010160  RH  077%=      5-min Rain = 0
KPD4 141448Z 35012KT 20/16 A3025 RMK A01 T02010160  RH  077%=      5-min Rain = 0
KPD4 141449Z 35011KT 20/16 A3025 RMK A01 T02010160  RH  077%=      5-min Rain = 0
KPD4 141450Z 35012KT 20/16 A3025 RMK A01 T02010160  RH  077%=      5-min Rain = 0
KPD4 141451Z 35012KT 20/16 A3025 RMK A01 T02010159  RH  077%=      5-min Rain = 0
KPD4 141452Z 35011KT 20/16 A3025 RMK A01 T02010160  RH  077%=      5-min Rain = 0
KPD4 141453Z 35014KT 20/16 A3026 RMK A01 T02020160  RH  077%=      5-min Rain = 0
KPD4 141454Z 35012KT 20/16 A3026 RMK A01 T02020159  RH  077%=      5-min Rain = 0
KPD4 141455Z 34014KT 20/16 A3026 RMK A01 T02020159  RH  076%=      5-min Rain = 0
KPD4 141456Z 34015KT 20/16 A3026 RMK A01 T02020159  RH  076%=      5-min Rain = 0
KPD4 141457Z 34013KT 20/16 A3026 RMK A01 T02020160  RH  076%=      5-min Rain = 0
KPD4 141458Z 34012KT 20/16 A3026 RMK A01 T02030160  RH  077%=      5-min Rain = 0
KPD4 141459Z 34011KT 20/16 A3026 RMK A01 T02030160  RH  076%=      5-min Rain = 0
KPD4 141500Z 35011G16KT 20/16 A3026 RMK A01 T02030161  RH  076%=      5-min Rain = 0
KPD4 141501Z 35013KT 20/16 A3026 RMK A01 T02040159  RH  075%=      5-min Rain = 0
KPD4 141502Z 35012KT 21/16 A3026 RMK A01 T02050159  RH  075%=      5-min Rain = 0
KPD4 141503Z 35013KT 20/16 A3026 RMK A01 T02040158  RH  075%=      5-min Rain = 0
KPD4 141504Z 34013KT 21/16 A3025 RMK A01 T02050159  RH  075%=      5-min Rain = 0
KPD4 141505Z 34012KT 21/16 A3025 RMK A01 T02050158  RH  074%=      5-min Rain = 0
KPD4 141506Z 34013KT 21/16 A3025 RMK A01 T02050158  RH  074%=      5-min Rain = 0
KPD4 141507Z 34013KT 21/16 A3025 RMK A01 T02050159  RH  075%=      5-min Rain = 0
KPD4 141508Z 34012KT 21/16 A3025 RMK A01 T02050159  RH  075%=      5-min Rain = 0
KPD4 141509Z 34012KT 21/16 A3026 RMK A01 T02060159  RH  074%=      5-min Rain = 0
KPD4 141510Z 34011KT 21/16 A3026 RMK A01 T02060159  RH  074%=      5-min Rain = 0
KPD4 141511Z 33012KT 21/16 A3026 RMK A01 T02060160  RH  075%=      5-min Rain = 0
KPD4 141512Z 34010KT 21/16 A3026 RMK A01 T02060160  RH  075%=      5-min Rain = 0
KPD4 141513Z 33011KT 21/16 A3026 RMK A01 T02070161  RH  075%=      5-min Rain = 0
KPD4 141514Z 33010KT 21/16 A3026 RMK A01 T02070160  RH  074%=      5-min Rain = 0
KPD4 141515Z 33010KT 21/16 A3026 RMK A01 T02080162  RH  075%=      5-min Rain = 0
KPD4 141516Z 33012KT 21/16 A3025 RMK A01 T02080159  RH  074%=      5-min Rain = 0
KPD4 141517Z 33011KT 21/16 A3025 RMK A01 T02080159  RH  074%=      5-min Rain = 0
KPD4 141518Z 33010KT 21/16 A3025 RMK A01 T02080161  RH  074%=      5-min Rain = 0
KPD4 141519Z 33008KT 21/16 A3025 RMK A01 T02080161  RH  074%=      5-min Rain = 0
KPD4 141520Z 33010KT 21/16 A3025 RMK A01 T02090162  RH  075%=      5-min Rain = 0
KPD4 141521Z 33010KT 21/16 A3025 RMK A01 T02080160  RH  074%=      5-min Rain = 0
KPD4 141522Z 32009KT 21/16 A3025 RMK A01 T02080161  RH  074%=      5-min Rain = 0
KPD4 141523Z 32008KT 21/16 A3025 RMK A01 T02080161  RH  075%=      5-min Rain = 0
KPD4 141524Z 32011KT 21/16 A3025 RMK A01 T02080161  RH  074%=      5-min Rain = 0
KPD4 141525Z 32012KT 21/16 A3025 RMK A01 T02090159  RH  073%=      5-min Rain = 0
KPD4 141526Z 32008KT 21/16 A3025 RMK A01 T02090161  RH  074%=      5-min Rain = 0
KPD4 141527Z 32009KT 21/16 A3025 RMK A01 T02090162  RH  074%=      5-min Rain = 0
KPD4 141528Z 32010KT 21/16 A3025 RMK A01 T02100161  RH  073%=      5-min Rain = 0
KPD4 141529Z 32010KT 21/16 A3025 RMK A01 T02100159  RH  072%=      5-min Rain = 0
KPD4 141530Z 31008KT 21/16 A3025 RMK A01 T02100159  RH  073%=      5-min Rain = 0
KPD4 141531Z 32008KT 21/16 A3025 RMK A01 T02100159  RH  072%=      5-min Rain = 0
KPD4 141532Z 32007KT 21/16 A3025 RMK A01 T02110161  RH  073%=      5-min Rain = 0
KPD4 141533Z 32009KT 21/16 A3025 RMK A01 T02120162  RH  073%=      5-min Rain = 0
KPD4 141534Z 32011KT 21/16 A3025 RMK A01 T02130160  RH  072%=      5-min Rain = 0
KPD4 141535Z 32011KT 21/16 A3025 RMK A01 T02140161  RH  072%=      5-min Rain = 0
KPD4 141536Z 32011KT 22/16 A3024 RMK A01 T02150161  RH  071%=      5-min Rain = 0
KPD4 141537Z 32012KT 22/16 A3024 RMK A01 T02160160  RH  071%=      5-min Rain = 0
KPD4 141538Z 32013KT 22/16 A3024 RMK A01 T02160157  RH  069%=      5-min Rain = 0
KPD4 141539Z 33011KT 22/16 A3024 RMK A01 T02170157  RH  068%=      5-min Rain = 0
KPD4 141540Z 32009KT 22/16 A3024 RMK A01 T02190159  RH  069%=      5-min Rain = 0
KPD4 141541Z 32007KT 22/16 A3024 RMK A01 T02210158  RH  068%=      5-min Rain = 0
KPD4 141542Z 31006KT 22/16 A3024 RMK A01 T02230161  RH  068%=      5-min Rain = 0
KPD4 141543Z 32005KT 23/17 A3024 RMK A01 T02260166  RH  069%=      5-min Rain = 0
KPD4 141544Z 31006KT 23/17 A3023 RMK A01 T02280165  RH  067%=      5-min Rain = 0
KPD4 141545Z 31004KT 23/16 A3023 RMK A01 T02300164  RH  066%=      5-min Rain = 0
KPD4 141546Z 30006KT 23/17 A3023 RMK A01 T02330167  RH  066%=      5-min Rain = 0
KPD4 141547Z 31008KT 24/16 A3023 RMK A01 T02360162  RH  063%=      5-min Rain = 0
KPD4 141548Z 32005KT 24/16 A3023 RMK A01 T02400158  RH  060%=      5-min Rain = 0
KPD4 141549Z 31004KT 25/16 A3023 RMK A01 T02450162  RH  060%=      5-min Rain = 0
KPD4 141550Z 32005KT 25/16 A3023 RMK A01 T02470160  RH  058%=      5-min Rain = 0
KPD4 141551Z 31005KT 25/16 A3022 RMK A01 T02490160  RH  058%=      5-min Rain = 0
KPD4 141552Z 32005KT 25/15 A3022 RMK A01 T02500148  RH  053%=      5-min Rain = 0
KPD4 141553Z 31005KT 25/15 A3022 RMK A01 T02500153  RH  055%=      5-min Rain = 0
KPD4 141554Z 31005KT 25/15 A3022 RMK A01 T02470154  RH  056%=      5-min Rain = 0
KPD4 141555Z 31005KT 25/15 A3022 RMK A01 T02460151  RH  056%=      5-min Rain = 0
KPD4 141556Z 31006KT 25/15 A3022 RMK A01 T02450147  RH  054%=      5-min Rain = 0
KPD4 141557Z 30004KT 24/15 A3023 RMK A01 T02430151  RH  056%=      5-min Rain = 0
KPD4 141558Z 30005KT 24/15 A3023 RMK A01 T02430151  RH  056%=      5-min Rain = 0
KPD4 141559Z 30005KT 24/15 A3023 RMK A01 T02430147  RH  055%=      5-min Rain = 0
KPD4 141600Z 31006KT 25/15 A3022 RMK A01 T02450145  RH  054%=      5-min Rain = 0
KPD4 141601Z 31005KT 25/15 A3022 RMK A01 T02480150  RH  054%=      5-min Rain = 0
KPD4 141602Z 31004KT 25/15 A3022 RMK A01 T02520146  RH  052%=      5-min Rain = 0
KPD4 141603Z 30004KT 25/14 A3022 RMK A01 T02520143  RH  051%=      5-min Rain = 0
KPD4 141604Z 29004KT 25/14 A3022 RMK A01 T02500144  RH  052%=      5-min Rain = 0
KPD4 141605Z 28003KT 25/14 A3022 RMK A01 T02490143  RH  052%=      5-min Rain = 0
KPD4 141606Z 29003KT 25/14 A3021 RMK A01 T02480141  RH  051%=      5-min Rain = 0
KPD4 141607Z 30002KT 25/14 A3021 RMK A01 T02470144  RH  052%=      5-min Rain = 0
KPD4 141608Z 27001KT 25/15 A3021 RMK A01 T02460147  RH  054%=      5-min Rain = 0
KPD4 141609Z 24002KT 25/15 A3021 RMK A01 T02460146  RH  053%=      5-min Rain = 0
KPD4 141610Z 24002KT 25/14 A302 RMK A01 T02460143  RH  052%=      5-min Rain = 0
KPD4 141611Z 24003KT 25/14 A302 RMK A01 T02460143  RH  053%=      5-min Rain = 0
KPD4 141612Z 24002KT 24/14 A302 RMK A01 T02440140  RH  052%=      5-min Rain = 0
KPD4 141613Z 22003KT 24/14 A302 RMK A01 T02430143  RH  054%=      5-min Rain = 0
KPD4 141614Z 22003KT 24/15 A302 RMK A01 T02440148  RH  055%=      5-min Rain = 0
KPD4 141615Z 20004KT 25/15 A302 RMK A01 T02460150  RH  055%=      5-min Rain = 0
KPD4 141616Z 19006KT 25/16 A302 RMK A01 T02490160  RH  058%=      5-min Rain = 0
KPD4 141617Z 19006KT 25/16 A302 RMK A01 T02500162  RH  058%=      5-min Rain = 0
KPD4 141618Z 18006KT 25/16 A302 RMK A01 T02510158  RH  056%=      5-min Rain = 0
KPD4 141619Z 18006KT 25/16 A302 RMK A01 T02520163  RH  058%=      5-min Rain = 0
KPD4 141620Z 17009KT 26/16 A302 RMK A01 T02550163  RH  057%=      5-min Rain = 0
KPD4 141621Z 17008KT 25/16 A3019 RMK A01 T02540162  RH  057%=      5-min Rain = 0
KPD4 141622Z 18009KT 25/16 A3019 RMK A01 T02530162  RH  057%=      5-min Rain = 0
KPD4 141623Z 19009KT 25/16 A3019 RMK A01 T02530160  RH  056%=      5-min Rain = 0
KPD4 141624Z 19008KT 25/16 A3019 RMK A01 T02530161  RH  057%=      5-min Rain = 0
KPD4 141625Z 19008KT 25/16 A3019 RMK A01 T02540159  RH  056%=      5-min Rain = 0
KPD4 141626Z 19007KT 26/16 A3019 RMK A01 T02550156  RH  054%=      5-min Rain = 0
KPD4 141627Z 19008KT 26/15 A3019 RMK A01 T02560154  RH  053%=      5-min Rain = 0
KPD4 141628Z 19008KT 26/16 A3019 RMK A01 T02570155  RH  053%=      5-min Rain = 0
KPD4 141629Z 18010KT 26/15 A3019 RMK A01 T02570152  RH  052%=      5-min Rain = 0
KPD4 141630Z 18009KT 26/15 A3019 RMK A01 T02550145  RH  050%=      5-min Rain = 0
KPD4 141631Z 17009KT 26/15 A3018 RMK A01 T02550145  RH  051%=      5-min Rain = 0
KPD4 141632Z 17010KT 26/14 A3018 RMK A01 T02550142  RH  049%=      5-min Rain = 0
KPD4 141633Z 18008KT 26/14 A3018 RMK A01 T02550143  RH  050%=      5-min Rain = 0
KPD4 141634Z 19009KT 26/14 A3018 RMK A01 T02570144  RH  050%=      5-min Rain = 0
KPD4 141635Z 16010KT 26/15 A3018 RMK A01 T02580148  RH  051%=      5-min Rain = 0
KPD4 141636Z 16009KT 26/15 A3019 RMK A01 T02610146  RH  049%=      5-min Rain = 0
KPD4 141637Z 16007KT 26/14 A3019 RMK A01 T02620144  RH  048%=      5-min Rain = 0
KPD4 141638Z 16006KT 26/15 A3019 RMK A01 T02630152  RH  050%=      5-min Rain = 0
KPD4 141639Z 16005KT 27/15 A3019 RMK A01 T02650150  RH  049%=      5-min Rain = 0
KPD4 141640Z 16005KT 27/14 A3019 RMK A01 T02660142  RH  047%=      5-min Rain = 0
KPD4 141641Z 14003KT 27/14 A3019 RMK A01 T02660144  RH  047%=      5-min Rain = 0
KPD4 141642Z 14003KT 27/15 A3019 RMK A01 T02680146  RH  047%=      5-min Rain = 0
KPD4 141643Z 17002KT 27/13 A3019 RMK A01 T02690133  RH  043%=      5-min Rain = 0
KPD4 141644Z 14003KT 27/14 A3019 RMK A01 T02680136  RH  044%=      5-min Rain = 0
KPD4 141645Z 14003KT 27/14 A3019 RMK A01 T02680144  RH  047%=      5-min Rain = 0
KPD4 141646Z 14005KT 27/15 A3019 RMK A01 T02680148  RH  047%=      5-min Rain = 0
KPD4 141647Z 14006KT 27/15 A3019 RMK A01 T02700146  RH  047%=      5-min Rain = 0
KPD4 141648Z 15005KT 27/14 A3019 RMK A01 T02710143  RH  046%=      5-min Rain = 0
KPD4 141649Z 14005KT 27/15 A3019 RMK A01 T02710148  RH  047%=      5-min Rain = 0
KPD4 141650Z 13007KT 27/14 A3019 RMK A01 T02730144  RH  045%=      5-min Rain = 0
KPD4 141651Z 12007KT 27/14 A3019 RMK A01 T02720144  RH  045%=      5-min Rain = 0
KPD4 141652Z 13006KT 27/14 A3019 RMK A01 T02710140  RH  044%=      5-min Rain = 0
KPD4 141653Z 14006KT 27/15 A3019 RMK A01 T02710145  RH  046%=      5-min Rain = 0
KPD4 141654Z 17004KT 27/14 A3018 RMK A01 T02720139  RH  044%=      5-min Rain = 0
KPD4 141655Z 18006KT 27/14 A3018 RMK A01 T02720142  RH  045%=      5-min Rain = 0
KPD4 141656Z 17005KT 27/15 A3018 RMK A01 T02720147  RH  046%=      5-min Rain = 0
KPD4 141657Z 13006KT 27/15 A3018 RMK A01 T02720154  RH  048%=      5-min Rain = 0
KPD4 141658Z 14005KT 28/15 A3018 RMK A01 T02750153  RH  047%=      5-min Rain = 0
KPD4 141659Z 17007KT 28/16 A3018 RMK A01 T02780156  RH  048%=      5-min Rain = 0
KPD4 141700Z 18007KT 28/15 A3018 RMK A01 T02780151  RH  046%=      5-min Rain = 0
KPD4 141701Z 18007KT 28/14 A3018 RMK A01 T02760141  RH  043%=      5-min Rain = 0
KPD4 141702Z 15008KT 27/15 A3018 RMK A01 T02720145  RH  046%=      5-min Rain = 0
KPD4 141703Z 16008KT 27/15 A3018 RMK A01 T02720148  RH  047%=      5-min Rain = 0
KPD4 141704Z 16010KT 27/15 A3018 RMK A01 T02720150  RH  047%=      5-min Rain = 0
KPD4 141705Z 16007KT 27/15 A3017 RMK A01 T02740151  RH  047%=      5-min Rain = 0
KPD4 141706Z 17011KT 28/15 A3017 RMK A01 T02750150  RH  046%=      5-min Rain = 0
KPD4 141707Z 17008KT 27/14 A3017 RMK A01 T02730142  RH  045%=      5-min Rain = 0
KPD4 141708Z 18006KT 27/15 A3017 RMK A01 T02720147  RH  046%=      5-min Rain = 0
KPD4 141709Z 19007KT 27/15 A3017 RMK A01 T02720146  RH  046%=      5-min Rain = 0
KPD4 141710Z 18006KT 27/15 A3017 RMK A01 T02740151  RH  047%=      5-min Rain = 0
KPD4 141711Z 16008KT 28/16 A3017 RMK A01 T02780155  RH  047%=      5-min Rain = 0
KPD4 141712Z 17008KT 28/15 A3017 RMK A01 T02800150  RH  045%=      5-min Rain = 0
KPD4 141713Z 16008KT 28/15 A3017 RMK A01 T02800148  RH  044%=      5-min Rain = 0
KPD4 141714Z 16008KT 28/15 A3017 RMK A01 T02800148  RH  045%=      5-min Rain = 0
KPD4 141715Z 16009KT 28/13 A3017 RMK A01 T02790133  RH  041%=      5-min Rain = 0
KPD4 141716Z 15008KT 28/13 A3017 RMK A01 T02780128  RH  040%=      5-min Rain = 0
KPD4 141717Z 16007KT 28/13 A3017 RMK A01 T02780129  RH  040%=      5-min Rain = 0
KPD4 141718Z 16006KT 28/14 A3017 RMK A01 T02800136  RH  041%=      5-min Rain = 0
KPD4 141719Z 18006KT 28/14 A3017 RMK A01 T02820142  RH  042%=      5-min Rain = 0
KPD4 141720Z 19006KT 28/15 A3017 RMK A01 T02840148  RH  043%=      5-min Rain = 0
KPD4 141721Z 20007KT 28/15 A3017 RMK A01 T02830153  RH  045%=      5-min Rain = 0
KPD4 141722Z 19006KT 28/15 A3017 RMK A01 T02830150  RH  044%=      5-min Rain = 0
KPD4 141723Z 18005KT 28/15 A3017 RMK A01 T02820149  RH  044%=      5-min Rain = 0
KPD4 141724Z 18003KT 28/15 A3017 RMK A01 T02800145  RH  044%=      5-min Rain = 0
KPD4 141725Z 19003KT 28/15 A3018 RMK A01 T02780148  RH  045%=      5-min Rain = 0
KPD4 141726Z 19006KT 28/15 A3018 RMK A01 T02780154  RH  047%=      5-min Rain = 0
KPD4 141727Z 19007KT 28/16 A3018 RMK A01 T02800157  RH  047%=      5-min Rain = 0
KPD4 141728Z 18006KT 28/15 A3018 RMK A01 T02810154  RH  046%=      5-min Rain = 0
KPD4 141729Z 18008KT 28/15 A3018 RMK A01 T02800154  RH  046%=      5-min Rain = 0
KPD4 141730Z 18008KT 28/16 A3018 RMK A01 T02790158  RH  047%=      5-min Rain = 0
KPD4 141731Z 16008KT 28/15 A3018 RMK A01 T02800151  RH  045%=      5-min Rain = 0
KPD4 141732Z 16007KT 28/15 A3018 RMK A01 T02790152  RH  046%=      5-min Rain = 0
KPD4 141733Z 17007KT 28/15 A3017 RMK A01 T02780152  RH  046%=      5-min Rain = 0
KPD4 141734Z 17008KT 28/15 A3017 RMK A01 T02770150  RH  046%=      5-min Rain = 0
KPD4 141735Z 18008KT 28/15 A3017 RMK A01 T02760149  RH  046%=      5-min Rain = 0
KPD4 141736Z 19010KT 28/15 A3017 RMK A01 T02750151  RH  047%=      5-min Rain = 0
KPD4 141737Z 19009KT 28/14 A3017 RMK A01 T02750143  RH  044%=      5-min Rain = 0
KPD4 141738Z 19008KT 27/15 A3017 RMK A01 T02740146  RH  045%=      5-min Rain = 0
KPD4 141739Z 18008KT 27/15 A3017 RMK A01 T02730147  RH  046%=      5-min Rain = 0
KPD4 141740Z 18007KT 28/15 A3017 RMK A01 T02750151  RH  047%=      5-min Rain = 0
KPD4 141741Z 19007KT 28/16 A3017 RMK A01 T02800155  RH  047%=      5-min Rain = 0
KPD4 141742Z 19009KT 28/15 A3017 RMK A01 T02840152  RH  044%=      5-min Rain = 0
KPD4 141743Z 18009KT 29/15 A3017 RMK A01 T02860152  RH  044%=      5-min Rain = 0
KPD4 141744Z 18008KT 29/15 A3017 RMK A01 T02860147  RH  043%=      5-min Rain = 0
KPD4 141745Z 19007KT 29/15 A3018 RMK A01 T02860153  RH  044%=      5-min Rain = 0
KPD4 141746Z 17008KT 29/15 A3018 RMK A01 T02870148  RH  043%=      5-min Rain = 0
KPD4 141747Z 17009KT 29/15 A3018 RMK A01 T02870148  RH  043%=      5-min Rain = 0
KPD4 141748Z 18009KT 29/15 A3018 RMK A01 T02870146  RH  042%=      5-min Rain = 0
KPD4 141749Z 16006KT 29/15 A3018 RMK A01 T02860146  RH  042%=      5-min Rain = 0
KPD4 141750Z 18005KT 29/14 A3018 RMK A01 T02850142  RH  042%=      5-min Rain = 0
KPD4 141751Z 18006KT 29/15 A3018 RMK A01 T02850146  RH  043%=      5-min Rain = 0
KPD4 141752Z 18002KT 29/14 A3018 RMK A01 T02850144  RH  042%=      5-min Rain = 0
KPD4 141753Z 11005KT 29/15 A3018 RMK A01 T02860146  RH  042%=      5-min Rain = 0
KPD4 141754Z 11004KT 29/14 A3018 RMK A01 T02870141  RH  041%=      5-min Rain = 0
KPD4 141755Z 11005KT 29/15 A3018 RMK A01 T02870146  RH  042%=      5-min Rain = 0
KPD4 141756Z 10006KT 29/14 A3018 RMK A01 T02870141  RH  041%=      5-min Rain = 0
KPD4 141757Z 08007KT 29/15 A3018 RMK A01 T02870149  RH  043%=      5-min Rain = 0
KPD4 141758Z 09007KT 29/15 A3018 RMK A01 T02890148  RH  042%=      5-min Rain = 0
KPD4 141759Z 10006KT 29/14 A3019 RMK A01 T02900141  RH  040%=      5-min Rain = 0
KPD4 141800Z 10005KT 29/14 A3019 RMK A01 T02880140  RH  040%=      5-min Rain = 0
KPD4 141801Z 12004KT 29/14 A3019 RMK A01 T02870139  RH  041%=      5-min Rain = 0
KPD4 141802Z 11003KT 29/14 A3019 RMK A01 T02850139  RH  041%=      5-min Rain = 0
KPD4 141803Z 10004KT 29/14 A3019 RMK A01 T02860142  RH  042%=      5-min Rain = 0
KPD4 141804Z 06003KT 29/14 A3019 RMK A01 T02860143  RH  042%=      5-min Rain = 0
KPD4 141805Z 04004KT 29/14 A3019 RMK A01 T02870144  RH  042%=      5-min Rain = 0
KPD4 141806Z 09006KT 29/15 A3019 RMK A01 T02890148  RH  042%=      5-min Rain = 0
KPD4 141807Z 08007KT 29/15 A3019 RMK A01 T02910152  RH  043%=      5-min Rain = 0
KPD4 141808Z 09007KT 29/15 A3019 RMK A01 T02940154  RH  043%=      5-min Rain = 0
KPD4 141809Z 09008KT 30/15 A3019 RMK A01 T02960150  RH  041%=      5-min Rain = 0
KPD4 141810Z 09006KT 29/15 A3019 RMK A01 T02940145  RH  040%=      5-min Rain = 0
KPD4 141811Z 07007KT 29/15 A3019 RMK A01 T02930150  RH  042%=      5-min Rain = 0
KPD4 141812Z 08007KT 29/15 A3019 RMK A01 T02920147  RH  041%=      5-min Rain = 0
KPD4 141813Z 09007KT 29/14 A3019 RMK A01 T02910142  RH  040%=      5-min Rain = 0
KPD4 141814Z 09007KT 29/15 A3018 RMK A01 T02900145  RH  041%=      5-min Rain = 0
KPD4 141815Z 10006KT 29/14 A3018 RMK A01 T02890141  RH  040%=      5-min Rain = 0
KPD4 141816Z 10003KT 29/14 A3018 RMK A01 T02880142  RH  041%=      5-min Rain = 0
KPD4 141817Z 09005KT 29/15 A3018 RMK A01 T02880145  RH  042%=      5-min Rain = 0
KPD4 141818Z 08006KT 29/14 A3018 RMK A01 T02890141  RH  040%=      5-min Rain = 0
KPD4 141819Z 08006KT 29/14 A3018 RMK A01 T02880144  RH  041%=      5-min Rain = 0
KPD4 141820Z 10006KT 29/15 A3018 RMK A01 T02880146  RH  042%=      5-min Rain = 0
KPD4 141821Z 09006KT 29/15 A3019 RMK A01 T02900148  RH  042%=      5-min Rain = 0
KPD4 141822Z 08006KT 29/15 A3018 RMK A01 T02910151  RH  042%=      5-min Rain = 0
KPD4 141823Z 08006KT 29/15 A3018 RMK A01 T02920146  RH  041%=      5-min Rain = 0
KPD4 141824Z 07006KT 29/15 A3018 RMK A01 T02920149  RH  042%=      5-min Rain = 0
KPD4 141825Z 05006KT 29/15 A3018 RMK A01 T02920151  RH  042%=      5-min Rain = 0
KPD4 141826Z 04007KT 29/15 A3018 RMK A01 T02940149  RH  041%=      5-min Rain = 0
KPD4 141827Z 05003KT 29/14 A3018 RMK A01 T02930140  RH  039%=      5-min Rain = 0
KPD4 141828Z 03004KT 29/15 A3018 RMK A01 T02900147  RH  042%=      5-min Rain = 0
KPD4 141829Z 03004KT 29/15 A3018 RMK A01 T02900152  RH  043%=      5-min Rain = 0
KPD4 141830Z 05002KT 29/16 A3018 RMK A01 T02930156  RH  043%=      5-min Rain = 0
KPD4 141831Z 06006KT 30/15 A3018 RMK A01 T02960152  RH  042%=      5-min Rain = 0
KPD4 141832Z 07007KT 30/15 A3018 RMK A01 T02970152  RH  041%=      5-min Rain = 0
KPD4 141833Z 05007KT 30/15 A3018 RMK A01 T02960152  RH  042%=      5-min Rain = 0
KPD4 141834Z 06006KT 30/15 A3018 RMK A01 T02960147  RH  040%=      5-min Rain = 0
KPD4 141835Z 08004KT 29/14 A3018 RMK A01 T02940142  RH  040%=      5-min Rain = 0
KPD4 141836Z 09004KT 29/15 A3018 RMK A01 T02920148  RH  041%=      5-min Rain = 0
KPD4 141837Z 10003KT 29/15 A3018 RMK A01 T02930149  RH  042%=      5-min Rain = 0
KPD4 141838Z 05003KT 29/15 A3018 RMK A01 T02940153  RH  042%=      5-min Rain = 0
KPD4 141839Z 01003KT 30/15 A3018 RMK A01 T02970147  RH  040%=      5-min Rain = 0
KPD4 141840Z 36003KT 30/15 A3018 RMK A01 T02990147  RH  040%=      5-min Rain = 0
KPD4 141841Z 03003KT 30/15 A3018 RMK A01 T02990148  RH  040%=      5-min Rain = 0
KPD4 141842Z 05002KT 30/15 A3018 RMK A01 T02990154  RH  041%=      5-min Rain = 0
KPD4 141843Z 04002KT 30/15 A3018 RMK A01 T03000146  RH  039%=      5-min Rain = 0
KPD4 141844Z 07004KT 30/15 A3018 RMK A01 T02990151  RH  040%=      5-min Rain = 0
KPD4 141845Z 09002KT 30/15 A3018 RMK A01 T02990146  RH  039%=      5-min Rain = 0
KPD4 141846Z 11006KT 30/15 A3017 RMK A01 T02980153  RH  041%=      5-min Rain = 0
KPD4 141847Z 11008KT 30/16 A3017 RMK A01 T02990156  RH  042%=      5-min Rain = 0
KPD4 141848Z 10007KT 30/16 A3017 RMK A01 T03020156  RH  041%=      5-min Rain = 0
KPD4 141849Z 09007KT 30/15 A3017 RMK A01 T03040151  RH  040%=      5-min Rain = 0
KPD4 141850Z 07003KT 30/15 A3017 RMK A01 T03020150  RH  040%=      5-min Rain = 0
KPD4 141851Z 12003KT 30/16 A3017 RMK A01 T03020158  RH  042%=      5-min Rain = 0
KPD4 141852Z 13003KT 30/15 A3017 RMK A01 T03030149  RH  039%=      5-min Rain = 0
KPD4 141853Z 14001KT 30/15 A3017 RMK A01 T03040149  RH  039%=      5-min Rain = 0
KPD4 141854Z 30001KT 30/15 A3017 RMK A01 T03030148  RH  039%=      5-min Rain = 0
KPD4 141855Z 30002KT 30/15 A3017 RMK A01 T03040145  RH  038%=      5-min Rain = 0
KPD4 141856Z 04002KT 30/14 A3017 RMK A01 T03030143  RH  038%=      5-min Rain = 0
KPD4 141857Z 07003KT 30/14 A3017 RMK A01 T03030144  RH  038%=      5-min Rain = 0
KPD4 141858Z 08002KT 30/14 A3017 RMK A01 T03030142  RH  038%=      5-min Rain = 0
KPD4 141859Z 07003KT 30/15 A3017 RMK A01 T03030146  RH  039%=      5-min Rain = 0
KPD4 141900Z 08003KT 30/14 A3017 RMK A01 T03030143  RH  038%=      5-min Rain = 0
KPD4 141901Z 05002KT 30/14 A3017 RMK A01 T03030142  RH  037%=      5-min Rain = 0
KPD4 141902Z 04001KT 30/15 A3017 RMK A01 T03030145  RH  038%=      5-min Rain = 0
KPD4 141903Z 35004KT 30/15 A3017 RMK A01 T03040149  RH  039%=      5-min Rain = 0
KPD4 141904Z 33005KT 31/15 A3016 RMK A01 T03060152  RH  039%=      5-min Rain = 0
KPD4 141905Z 02003KT 31/15 A3016 RMK A01 T03070153  RH  039%=      5-min Rain = 0
KPD4 141906Z 32003KT 31/15 A3016 RMK A01 T03080150  RH  038%=      5-min Rain = 0
KPD4 141907Z 32006KT 31/15 A3016 RMK A01 T03080150  RH  038%=      5-min Rain = 0
KPD4 141908Z 29005KT 31/15 A3016 RMK A01 T03080148  RH  038%=      5-min Rain = 0
KPD4 141909Z 30005KT 31/15 A3016 RMK A01 T03080148  RH  038%=      5-min Rain = 0
KPD4 141910Z 33002KT 31/14 A3016 RMK A01 T03050143  RH  037%=      5-min Rain = 0
KPD4 141911Z 05001KT 30/15 A3016 RMK A01 T03040147  RH  038%=      5-min Rain = 0
KPD4 141912Z 10002KT 30/14 A3016 RMK A01 T03040144  RH  038%=      5-min Rain = 0
KPD4 141913Z 10002KT 30/15 A3016 RMK A01 T03020146  RH  039%=      5-min Rain = 0
KPD4 141914Z 09001KT 30/15 A3016 RMK A01 T03010150  RH  040%=      5-min Rain = 0
KPD4 141915Z 05001KT 30/15 A3016 RMK A01 T03010149  RH  040%=      5-min Rain = 0
KPD4 141916Z 05003KT 30/15 A3016 RMK A01 T03020147  RH  039%=      5-min Rain = 0
KPD4 141917Z 04004KT 30/15 A3016 RMK A01 T03030151  RH  040%=      5-min Rain = 0
KPD4 141918Z 04007KT 31/16 A3016 RMK A01 T03050155  RH  040%=      5-min Rain = 0
KPD4 141919Z 06009KT 31/16 A3016 RMK A01 T03080158  RH  040%=      5-min Rain = 0
KPD4 141920Z 07008KT 31/15 A3016 RMK A01 T03090145  RH  037%=      5-min Rain = 0
KPD4 141921Z 05008KT 31/15 A3016 RMK A01 T03060151  RH  039%=      5-min Rain = 0
KPD4 141922Z 06009KT 31/16 A3016 RMK A01 T03060155  RH  040%=      5-min Rain = 0
KPD4 141923Z 04010KT 31/15 A3016 RMK A01 T03070147  RH  038%=      5-min Rain = 0
KPD4 141924Z 03009KT 31/15 A3016 RMK A01 T03050152  RH  039%=      5-min Rain = 0
KPD4 141925Z 02007KT 31/15 A3017 RMK A01 T03070151  RH  039%=      5-min Rain = 0
KPD4 141926Z 01005KT 31/15 A3017 RMK A01 T03080150  RH  038%=      5-min Rain = 0
KPD4 141927Z 03003KT 31/15 A3017 RMK A01 T03080151  RH  039%=      5-min Rain = 0
KPD4 141928Z 09005KT 31/15 A3017 RMK A01 T03090152  RH  039%=      5-min Rain = 0
KPD4 141929Z 09008KT 31/15 A3017 RMK A01 T03090148  RH  038%=      5-min Rain = 0
KPD4 141930Z 08008G13KT 31/15 A3016 RMK A01 T03080152  RH  039%=      5-min Rain = 0
KPD4 141931Z 08005KT 31/14 A3016 RMK A01 T03060143  RH  037%=      5-min Rain = 0
KPD4 141932Z 11005KT 30/15 A3016 RMK A01 T03040148  RH  039%=      5-min Rain = 0
KPD4 141933Z 08006KT 30/15 A3016 RMK A01 T03040151  RH  039%=      5-min Rain = 0
KPD4 141934Z 06005KT 31/15 A3016 RMK A01 T03050150  RH  039%=      5-min Rain = 0
KPD4 141935Z 07003KT 30/15 A3016 RMK A01 T03040145  RH  038%=      5-min Rain = 0
KPD4 141936Z 06003KT 30/15 A3016 RMK A01 T03020154  RH  041%=      5-min Rain = 0
KPD4 141937Z 05005KT 31/16 A3016 RMK A01 T03050156  RH  041%=      5-min Rain = 0
KPD4 141938Z 05006KT 31/15 A3016 RMK A01 T03080150  RH  038%=      5-min Rain = 0
KPD4 141939Z 04007KT 31/15 A3016 RMK A01 T03080154  RH  039%=      5-min Rain = 0
KPD4 141940Z 04004KT 31/15 A3016 RMK A01 T03070153  RH  039%=      5-min Rain = 0
KPD4 141941Z 03008G14KT 31/16 A3016 RMK A01 T03070156  RH  040%=      5-min Rain = 0
KPD4 141942Z 04011KT 31/15 A3016 RMK A01 T03090151  RH  038%=      5-min Rain = 0
KPD4 141943Z 06008KT 31/15 A3016 RMK A01 T03080148  RH  038%=      5-min Rain = 0
KPD4 141944Z 07008KT 31/15 A3016 RMK A01 T03060152  RH  039%=      5-min Rain = 0
KPD4 141945Z 07006KT 31/15 A3016 RMK A01 T03060150  RH  039%=      5-min Rain = 0
KPD4 141946Z 07004KT 31/15 A3016 RMK A01 T03060152  RH  039%=      5-min Rain = 0
KPD4 141947Z 09002KT 31/14 A3016 RMK A01 T03050143  RH  037%=      5-min Rain = 0
KPD4 141948Z 09005KT 30/15 A3016 RMK A01 T03040148  RH  039%=      5-min Rain = 0
KPD4 141949Z 09005KT 30/15 A3016 RMK A01 T03030152  RH  040%=      5-min Rain = 0
KPD4 141950Z 06006G11KT 30/15 A3016 RMK A01 T03040151  RH  040%=      5-min Rain = 0
KPD4 141951Z 06010KT 31/16 A3016 RMK A01 T03060155  RH  040%=      5-min Rain = 0
KPD4 141952Z 06008KT 31/16 A3016 RMK A01 T03080156  RH  040%=      5-min Rain = 0
KPD4 141953Z 05008KT 31/15 A3016 RMK A01 T03080154  RH  039%=      5-min Rain = 0
KPD4 141954Z 04008KT 31/15 A3016 RMK A01 T03090154  RH  039%=      5-min Rain = 0
KPD4 141955Z 03006KT 31/15 A3016 RMK A01 T03090151  RH  039%=      5-min Rain = 0
KPD4 141956Z 01005KT 31/16 A3016 RMK A01 T03090156  RH  040%=      5-min Rain = 0
KPD4 141957Z 05009G14KT 31/16 A3016 RMK A01 T03100159  RH  040%=      5-min Rain = 0
KPD4 141958Z 05012KT 31/16 A3016 RMK A01 T03110155  RH  039%=      5-min Rain = 0
KPD4 141959Z 05012KT 31/16 A3015 RMK A01 T03110159  RH  040%=      5-min Rain = 0
KPD4 142000Z 04010KT 31/16 A3016 RMK A01 T03120161  RH  040%=      5-min Rain = 0
KPD4 142001Z 05011KT 32/16 A3016 RMK A01 T03150163  RH  040%=      5-min Rain = 0
KPD4 142002Z 05008KT 32/16 A3016 RMK A01 T03160155  RH  038%=      5-min Rain = 0
KPD4 142003Z 06010KT 31/16 A3015 RMK A01 T03130160  RH  040%=      5-min Rain = 0
KPD4 142004Z 05009KT 31/15 A3015 RMK A01 T03110153  RH  038%=      5-min Rain = 0
KPD4 142005Z 04009KT 31/16 A3015 RMK A01 T03090155  RH  039%=      5-min Rain = 0
KPD4 142006Z 05008KT 31/16 A3015 RMK A01 T03080157  RH  040%=      5-min Rain = 0
KPD4 142007Z 03006KT 31/15 A3015 RMK A01 T03090153  RH  039%=      5-min Rain = 0
KPD4 142008Z 04009G14KT 31/15 A3015 RMK A01 T03080153  RH  039%=      5-min Rain = 0
KPD4 142009Z 06014KT 31/16 A3015 RMK A01 T03080157  RH  040%=      5-min Rain = 0
KPD4 142010Z 06011KT 31/15 A3015 RMK A01 T03100154  RH  039%=      5-min Rain = 0
KPD4 142011Z 07009KT 31/16 A3015 RMK A01 T03100155  RH  039%=      5-min Rain = 0
KPD4 142012Z 08008KT 31/15 A3015 RMK A01 T03090153  RH  039%=      5-min Rain = 0
KPD4 142013Z 06010KT 31/16 A3015 RMK A01 T03080156  RH  040%=      5-min Rain = 0
KPD4 142014Z 04010KT 31/16 A3015 RMK A01 T03080155  RH  040%=      5-min Rain = 0
KPD4 142015Z 05011KT 31/15 A3015 RMK A01 T03090153  RH  039%=      5-min Rain = 0
KPD4 142016Z 05009KT 31/15 A3015 RMK A01 T03090151  RH  038%=      5-min Rain = 0
KPD4 142017Z 05009KT 31/15 A3015 RMK A01 T03070152  RH  039%=      5-min Rain = 0
KPD4 142018Z 05010KT 31/16 A3014 RMK A01 T03060155  RH  040%=      5-min Rain = 0
KPD4 142019Z 04011KT 31/16 A3014 RMK A01 T03070155  RH  040%=      5-min Rain = 0
KPD4 142020Z 03011KT 31/15 A3014 RMK A01 T03080154  RH  039%=      5-min Rain = 0
KPD4 142021Z 06009KT 31/16 A3014 RMK A01 T03090160  RH  041%=      5-min Rain = 0
KPD4 142022Z 06009KT 31/16 A3014 RMK A01 T03120158  RH  039%=      5-min Rain = 0
KPD4 142023Z 05007KT 31/16 A3014 RMK A01 T03120156  RH  039%=      5-min Rain = 0
KPD4 142024Z 05009KT 31/16 A3014 RMK A01 T03110155  RH  039%=      5-min Rain = 0
KPD4 142025Z 08010KT 31/16 A3014 RMK A01 T03120161  RH  040%=      5-min Rain = 0
KPD4 142026Z 08009KT 31/15 A3014 RMK A01 T03120153  RH  038%=      5-min Rain = 0
KPD4 142027Z 08010G15KT 31/16 A3014 RMK A01 T03100162  RH  041%=      5-min Rain = 0
KPD4 142028Z 08013KT 31/15 A3014 RMK A01 T03130154  RH  038%=      5-min Rain = 0
KPD4 142029Z 07011KT 31/16 A3014 RMK A01 T03110155  RH  039%=      5-min Rain = 0
KPD4 142030Z 07010KT 31/15 A3014 RMK A01 T03100153  RH  039%=      5-min Rain = 0
KPD4 142031Z 07007KT 31/15 A3014 RMK A01 T03080152  RH  039%=      5-min Rain = 0
KPD4 142032Z 07005KT 31/15 A3014 RMK A01 T03070148  RH  038%=      5-min Rain = 0
KPD4 142033Z 07006KT 31/15 A3014 RMK A01 T03050147  RH  038%=      5-min Rain = 0
KPD4 142034Z 05008KT 30/16 A3014 RMK A01 T03040158  RH  041%=      5-min Rain = 0
KPD4 142035Z 05007KT 31/16 A3014 RMK A01 T03090163  RH  041%=      5-min Rain = 0
KPD4 142036Z 06007KT 31/16 A3014 RMK A01 T03120157  RH  039%=      5-min Rain = 0
KPD4 142037Z 06008KT 31/16 A3014 RMK A01 T03130158  RH  039%=      5-min Rain = 0
KPD4 142038Z 05008KT 31/16 A3014 RMK A01 T03130155  RH  039%=      5-min Rain = 0
KPD4 142039Z 07007KT 31/16 A3014 RMK A01 T03120160  RH  040%=      5-min Rain = 0
KPD4 142040Z 08010KT 31/16 A3014 RMK A01 T03130157  RH  039%=      5-min Rain = 0
KPD4 142041Z 08008KT 31/16 A3014 RMK A01 T03110156  RH  039%=      5-min Rain = 0
KPD4 142042Z 08008KT 31/16 A3014 RMK A01 T03110159  RH  040%=      5-min Rain = 0
KPD4 142043Z 07008KT 31/16 A3014 RMK A01 T03110156  RH  039%=      5-min Rain = 0
KPD4 142044Z 05010KT 31/16 A3014 RMK A01 T03120160  RH  040%=      5-min Rain = 0
KPD4 142045Z 05010KT 31/15 A3014 RMK A01 T03120154  RH  038%=      5-min Rain = 0
KPD4 142046Z 07009KT 31/16 A3014 RMK A01 T03100158  RH  040%=      5-min Rain = 0
KPD4 142047Z 07008KT 31/16 A3013 RMK A01 T03090156  RH  039%=      5-min Rain = 0
KPD4 142048Z 03006KT 31/16 A3013 RMK A01 T03090163  RH  041%=      5-min Rain = 0
KPD4 142049Z 04008KT 31/16 A3013 RMK A01 T03140164  RH  041%=      5-min Rain = 0
KPD4 142050Z 03007KT 32/16 A3013 RMK A01 T03160156  RH  038%=      5-min Rain = 0
KPD4 142051Z 04006KT 31/16 A3013 RMK A01 T03140155  RH  038%=      5-min Rain = 0
KPD4 142052Z 03006KT 31/16 A3013 RMK A01 T03120159  RH  040%=      5-min Rain = 0
KPD4 142053Z 06007KT 31/16 A3013 RMK A01 T03120160  RH  040%=      5-min Rain = 0
KPD4 142054Z 06009KT 31/16 A3013 RMK A01 T03130159  RH  040%=      5-min Rain = 0
KPD4 142055Z 04007KT 31/16 A3013 RMK A01 T03120161  RH  040%=      5-min Rain = 0
KPD4 142056Z 06008KT 31/16 A3013 RMK A01 T03120159  RH  040%=      5-min Rain = 0
KPD4 142057Z 08010KT 31/16 A3013 RMK A01 T03120162  RH  040%=      5-min Rain = 0
KPD4 142058Z 07012KT 31/16 A3013 RMK A01 T03120159  RH  040%=      5-min Rain = 0
KPD4 142059Z 07013KT 31/16 A3013 RMK A01 T03120160  RH  040%=      5-min Rain = 0
KPD4 142100Z 07012KT 31/16 A3013 RMK A01 T03120159  RH  040%=      5-min Rain = 0
KPD4 142101Z 07011KT 31/16 A3013 RMK A01 T03110157  RH  040%=      5-min Rain = 0
KPD4 142102Z 06009KT 31/16 A3013 RMK A01 T03090155  RH  039%=      5-min Rain = 0
KPD4 142103Z 07012KT 31/16 A3013 RMK A01 T03080158  RH  040%=      5-min Rain = 0
KPD4 142104Z 07012KT 31/16 A3013 RMK A01 T03080155  RH  040%=      5-min Rain = 0
KPD4 142105Z 07009KT 31/16 A3013 RMK A01 T03080157  RH  040%=      5-min Rain = 0
KPD4 142106Z 07007KT 31/15 A3013 RMK A01 T03080154  RH  039%=      5-min Rain = 0
KPD4 142107Z 08008KT 31/16 A3013 RMK A01 T03070158  RH  041%=      5-min Rain = 0
KPD4 142108Z 10007KT 31/15 A3013 RMK A01 T03080152  RH  039%=      5-min Rain = 0
KPD4 142109Z 07006KT 31/16 A3013 RMK A01 T03060155  RH  040%=      5-min Rain = 0
KPD4 142110Z 07004G9KT 31/15 A3013 RMK A01 T03060151  RH  039%=      5-min Rain = 0
KPD4 142111Z 07009KT 31/16 A3013 RMK A01 T03060158  RH  041%=      5-min Rain = 0
KPD4 142112Z 08010KT 31/16 A3013 RMK A01 T03080158  RH  040%=      5-min Rain = 0
KPD4 142113Z 07010KT 31/16 A3013 RMK A01 T03100159  RH  040%=      5-min Rain = 0
KPD4 142114Z 07009KT 31/15 A3013 RMK A01 T03100153  RH  039%=      5-min Rain = 0
KPD4 142115Z 06008KT 31/15 A3013 RMK A01 T03090153  RH  039%=      5-min Rain = 0
KPD4 142116Z 08006KT 31/15 A3013 RMK A01 T03070154  RH  040%=      5-min Rain = 0
KPD4 142117Z 09006KT 31/16 A3013 RMK A01 T03060158  RH  041%=      5-min Rain = 0
KPD4 142118Z 08007KT 31/15 A3013 RMK A01 T03080154  RH  039%=      5-min Rain = 0
KPD4 142119Z 08006KT 31/15 A3013 RMK A01 T03080154  RH  039%=      5-min Rain = 0
KPD4 142120Z 07010KT 31/16 A3012 RMK A01 T03080155  RH  040%=      5-min Rain = 0
KPD4 142121Z 07012KT 31/15 A3012 RMK A01 T03080152  RH  039%=      5-min Rain = 0
KPD4 142122Z 07009KT 31/15 A3012 RMK A01 T03070154  RH  040%=      5-min Rain = 0
KPD4 142123Z 06007KT 31/16 A3012 RMK A01 T03080156  RH  040%=      5-min Rain = 0
KPD4 142124Z 06008KT 31/15 A3012 RMK A01 T03090154  RH  039%=      5-min Rain = 0
KPD4 142125Z 05004KT 31/15 A3012 RMK A01 T03100149  RH  038%=      5-min Rain = 0
KPD4 142126Z 06004KT 31/15 A3012 RMK A01 T03070152  RH  039%=      5-min Rain = 0
KPD4 142127Z 06005KT 31/16 A3012 RMK A01 T03080160  RH  041%=      5-min Rain = 0
KPD4 142128Z 08006KT 31/16 A3012 RMK A01 T03100159  RH  040%=      5-min Rain = 0
KPD4 142129Z 10007KT 31/16 A3012 RMK A01 T03110156  RH  039%=      5-min Rain = 0
KPD4 142130Z 10008KT 31/16 A3012 RMK A01 T03120155  RH  039%=      5-min Rain = 0
KPD4 142131Z 09009KT 31/16 A3012 RMK A01 T03120161  RH  040%=      5-min Rain = 0
KPD4 142132Z 08010KT 31/15 A3012 RMK A01 T03140154  RH  038%=      5-min Rain = 0
KPD4 142133Z 08010KT 31/15 A3012 RMK A01 T03120152  RH  038%=      5-min Rain = 0
KPD4 142134Z 08007KT 31/15 A3012 RMK A01 T03090154  RH  039%=      5-min Rain = 0
KPD4 142135Z 10006KT 31/16 A3012 RMK A01 T03090156  RH  040%=      5-min Rain = 0
KPD4 142136Z 08008KT 31/16 A3012 RMK A01 T03100156  RH  039%=      5-min Rain = 0
KPD4 142137Z 07007KT 31/16 A3012 RMK A01 T03100156  RH  039%=      5-min Rain = 0
KPD4 142138Z 05006KT 31/16 A3012 RMK A01 T03110158  RH  040%=      5-min Rain = 0
KPD4 142139Z 07006KT 31/16 A3012 RMK A01 T03120159  RH  040%=      5-min Rain = 0
KPD4 142140Z 09006KT 31/16 A3011 RMK A01 T03130157  RH  039%=      5-min Rain = 0
KPD4 142141Z 11006KT 31/16 A3011 RMK A01 T03130162  RH  040%=      5-min Rain = 0
KPD4 142142Z 10010KT 31/16 A3011 RMK A01 T03140162  RH  040%=      5-min Rain = 0
KPD4 142143Z 09010KT 32/16 A3011 RMK A01 T03160156  RH  038%=      5-min Rain = 0
KPD4 142144Z 10009KT 31/15 A3011 RMK A01 T03140152  RH  038%=      5-min Rain = 0
KPD4 142145Z 10008KT 31/15 A3011 RMK A01 T03110154  RH  039%=      5-min Rain = 0
KPD4 142146Z 09007KT 31/16 A3011 RMK A01 T03110155  RH  039%=      5-min Rain = 0
KPD4 142147Z 07007KT 31/15 A3011 RMK A01 T03110153  RH  038%=      5-min Rain = 0
KPD4 142148Z 05007KT 31/16 A3011 RMK A01 T03110156  RH  039%=      5-min Rain = 0
KPD4 142149Z 07004KT 31/16 A3011 RMK A01 T03120157  RH  039%=      5-min Rain = 0
KPD4 142150Z 07008KT 31/16 A3011 RMK A01 T03140159  RH  039%=      5-min Rain = 0
KPD4 142151Z 07008KT 32/16 A3011 RMK A01 T03150158  RH  039%=      5-min Rain = 0
KPD4 142152Z 08010KT 32/16 A3011 RMK A01 T03160159  RH  039%=      5-min Rain = 0
KPD4 142153Z 09010KT 32/16 A3011 RMK A01 T03160155  RH  038%=      5-min Rain = 0
KPD4 142154Z 09011KT 31/15 A3011 RMK A01 T03140152  RH  038%=      5-min Rain = 0
KPD4 142155Z 09009KT 31/15 A3011 RMK A01 T03120152  RH  038%=      5-min Rain = 0
KPD4 142156Z 07009KT 31/16 A3011 RMK A01 T03120157  RH  039%=      5-min Rain = 0
KPD4 142157Z 07007KT 31/15 A3011 RMK A01 T03130149  RH  037%=      5-min Rain = 0
KPD4 142158Z 08008KT 31/16 A3011 RMK A01 T03120156  RH  039%=      5-min Rain = 0
KPD4 142159Z 09010KT 31/16 A3011 RMK A01 T03130156  RH  039%=      5-min Rain = 0
KPD4 142200Z 09010KT 31/15 A3011 RMK A01 T03140153  RH  038%=      5-min Rain = 0
KPD4 142201Z 09008KT 31/15 A3011 RMK A01 T03130151  RH  038%=      5-min Rain = 0
KPD4 142202Z 07011KT 31/16 A301 RMK A01 T03120157  RH  039%=      5-min Rain = 0
KPD4 142203Z 07007KT 31/15 A3011 RMK A01 T03130150  RH  037%=      5-min Rain = 0
KPD4 142204Z 07005KT 31/15 A3011 RMK A01 T03120153  RH  038%=      5-min Rain = 0
KPD4 142205Z 07009KT 31/15 A301 RMK A01 T03120154  RH  039%=      5-min Rain = 0
KPD4 142206Z 08011KT 31/15 A301 RMK A01 T03130152  RH  038%=      5-min Rain = 0
KPD4 142207Z 08011KT 31/15 A301 RMK A01 T03130153  RH  038%=      5-min Rain = 0
KPD4 142208Z 07011KT 31/15 A301 RMK A01 T03130151  RH  038%=      5-min Rain = 0
KPD4 142209Z 07008KT 31/15 A301 RMK A01 T03120151  RH  038%=      5-min Rain = 0
KPD4 142210Z 08005KT 31/15 A301 RMK A01 T03110152  RH  038%=      5-min Rain = 0
KPD4 142211Z 07004KT 31/16 A301 RMK A01 T03110156  RH  039%=      5-min Rain = 0
KPD4 142212Z 08007KT 31/16 A301 RMK A01 T03130156  RH  039%=      5-min Rain = 0
KPD4 142213Z 08006KT 31/15 A301 RMK A01 T03140154  RH  038%=      5-min Rain = 0
KPD4 142214Z 10008KT 32/16 A301 RMK A01 T03150155  RH  038%=      5-min Rain = 0
KPD4 142215Z 10009KT 32/15 A301 RMK A01 T03150152  RH  037%=      5-min Rain = 0
KPD4 142216Z 10007KT 31/15 A301 RMK A01 T03140151  RH  037%=      5-min Rain = 0
KPD4 142217Z 11005KT 31/15 A301 RMK A01 T03130152  RH  038%=      5-min Rain = 0
KPD4 142218Z 12006KT 31/15 A301 RMK A01 T03130150  RH  037%=      5-min Rain = 0
KPD4 142219Z 12006KT 31/15 A301 RMK A01 T03120149  RH  037%=      5-min Rain = 0
KPD4 142220Z 12006KT 31/15 A301 RMK A01 T03120147  RH  037%=      5-min Rain = 0
KPD4 142221Z 12007KT 31/15 A301 RMK A01 T03120152  RH  038%=      5-min Rain = 0
KPD4 142222Z 09008KT 31/16 A301 RMK A01 T03130155  RH  038%=      5-min Rain = 0
KPD4 142223Z 11006KT 31/14 A301 RMK A01 T03140143  RH  036%=      5-min Rain = 0
KPD4 142224Z 10005KT 31/15 A301 RMK A01 T03110145  RH  037%=      5-min Rain = 0
KPD4 142225Z 11004KT 31/15 A301 RMK A01 T03100148  RH  037%=      5-min Rain = 0
KPD4 142226Z 13002KT 31/15 A301 RMK A01 T03110145  RH  037%=      5-min Rain = 0
KPD4 142227Z 13003KT 31/15 A301 RMK A01 T03110145  RH  037%=      5-min Rain = 0
KPD4 142228Z 12003KT 31/15 A301 RMK A01 T03100147  RH  037%=      5-min Rain = 0
KPD4 142229Z 11004KT 31/15 A301 RMK A01 T03100147  RH  037%=      5-min Rain = 0
KPD4 142230Z 09003KT 31/15 A301 RMK A01 T03100146  RH  037%=      5-min Rain = 0
KPD4 142231Z 08006KT 31/15 A301 RMK A01 T03110151  RH  038%=      5-min Rain = 0
KPD4 142232Z 09007KT 31/15 A3009 RMK A01 T03120146  RH  037%=      5-min Rain = 0
KPD4 142233Z 07007KT 31/15 A3009 RMK A01 T03120151  RH  038%=      5-min Rain = 0
KPD4 142234Z 08006KT 31/15 A3009 RMK A01 T03130147  RH  037%=      5-min Rain = 0
KPD4 142235Z 08006KT 31/15 A3009 RMK A01 T03130147  RH  037%=      5-min Rain = 0
KPD4 142236Z 08006KT 31/15 A3009 RMK A01 T03120148  RH  037%=      5-min Rain = 0
KPD4 142237Z 09004KT 31/15 A3009 RMK A01 T03110147  RH  037%=      5-min Rain = 0
KPD4 142238Z 11004KT 31/15 A3009 RMK A01 T03120145  RH  036%=      5-min Rain = 0
KPD4 142239Z 07003KT 31/15 A3009 RMK A01 T03120145  RH  036%=      5-min Rain = 0
KPD4 142240Z 10002KT 31/14 A3009 RMK A01 T03120143  RH  036%=      5-min Rain = 0
KPD4 142241Z 11004KT 31/15 A3009 RMK A01 T03110154  RH  038%=      5-min Rain = 0
KPD4 142242Z 09004KT 31/15 A3009 RMK A01 T03140147  RH  036%=      5-min Rain = 0
KPD4 142243Z 08004KT 32/15 A3009 RMK A01 T03150148  RH  036%=      5-min Rain = 0
KPD4 142244Z 07005KT 32/14 A3009 RMK A01 T03150142  RH  035%=      5-min Rain = 0
KPD4 142245Z 08003KT 31/15 A3009 RMK A01 T03130149  RH  037%=      5-min Rain = 0
KPD4 142246Z 10003KT 31/15 A3009 RMK A01 T03140147  RH  037%=      5-min Rain = 0
KPD4 142247Z 09004KT 31/14 A3009 RMK A01 T03140142  RH  035%=      5-min Rain = 0
KPD4 142248Z 10002KT 31/14 A3009 RMK A01 T03130139  RH  035%=      5-min Rain = 0
KPD4 142249Z 06003KT 31/14 A3009 RMK A01 T03120143  RH  036%=      5-min Rain = 0
KPD4 142250Z 07003KT 31/15 A3009 RMK A01 T03120146  RH  037%=      5-min Rain = 0
KPD4 142251Z 08003KT 31/15 A3009 RMK A01 T03130154  RH  038%=      5-min Rain = 0
KPD4 142252Z 08007KT 31/15 A3009 RMK A01 T03140149  RH  037%=      5-min Rain = 0
KPD4 142253Z 06006KT 31/14 A3009 RMK A01 T03140143  RH  036%=      5-min Rain = 0
KPD4 142254Z 04005KT 31/15 A3009 RMK A01 T03120147  RH  037%=      5-min Rain = 0
KPD4 142255Z 06005KT 31/15 A3009 RMK A01 T03120146  RH  036%=      5-min Rain = 0
KPD4 142256Z 07004KT 31/15 A3009 RMK A01 T03120149  RH  037%=      5-min Rain = 0
KPD4 142257Z 10005KT 31/15 A3009 RMK A01 T03120148  RH  037%=      5-min Rain = 0
KPD4 142258Z 12005KT 31/15 A3008 RMK A01 T03130148  RH  037%=      5-min Rain = 0
KPD4 142259Z 10008KT 31/15 A3008 RMK A01 T03130149  RH  037%=      5-min Rain = 0
KPD4 142300Z 10007KT 31/15 A3008 RMK A01 T03130148  RH  037%=      5-min Rain = 0
KPD4 142301Z 09007KT 31/15 A3008 RMK A01 T03120146  RH  037%=      5-min Rain = 0
KPD4 142302Z 09006KT 31/14 A3008 RMK A01 T03110144  RH  036%=      5-min Rain = 0
KPD4 142303Z 08005KT 31/14 A3008 RMK A01 T03110143  RH  036%=      5-min Rain = 0
KPD4 142304Z 07005KT 31/15 A3008 RMK A01 T03110149  RH  038%=      5-min Rain = 0
KPD4 142305Z 08005KT 31/15 A3008 RMK A01 T03110145  RH  036%=      5-min Rain = 0
KPD4 142306Z 08004KT 31/15 A3008 RMK A01 T03120146  RH  037%=      5-min Rain = 0
KPD4 142307Z 10005KT 31/15 A3008 RMK A01 T03120151  RH  038%=      5-min Rain = 0
KPD4 142308Z 09005KT 31/15 A3008 RMK A01 T03120148  RH  037%=      5-min Rain = 0
KPD4 142309Z 08008KT 31/15 A3008 RMK A01 T03130151  RH  038%=      5-min Rain = 0
KPD4 142310Z 08006KT 31/15 A3008 RMK A01 T03130146  RH  036%=      5-min Rain = 0
KPD4 142311Z 07007KT 31/15 A3008 RMK A01 T03120150  RH  037%=      5-min Rain = 0
KPD4 142312Z 08006KT 31/15 A3008 RMK A01 T03120148  RH  037%=      5-min Rain = 0
KPD4 142313Z 07006KT 31/15 A3008 RMK A01 T03130148  RH  037%=      5-min Rain = 0
KPD4 142314Z 08005KT 31/15 A3008 RMK A01 T03130147  RH  036%=      5-min Rain = 0
KPD4 142315Z 07004KT 31/15 A3008 RMK A01 T03120152  RH  038%=      5-min Rain = 0
KPD4 142316Z 06005KT 31/15 A3008 RMK A01 T03130150  RH  037%=      5-min Rain = 0
KPD4 142317Z 09008KT 31/15 A3008 RMK A01 T03140150  RH  037%=      5-min Rain = 0
KPD4 142318Z 12005KT 31/15 A3008 RMK A01 T03140146  RH  036%=      5-min Rain = 0
KPD4 142319Z 12006KT 31/15 A3008 RMK A01 T03130151  RH  037%=      5-min Rain = 0
KPD4 142320Z 11006KT 31/15 A3008 RMK A01 T03130153  RH  038%=      5-min Rain = 0
KPD4 142321Z 09006KT 31/16 A3008 RMK A01 T03140155  RH  038%=      5-min Rain = 0
KPD4 142322Z 08008KT 32/15 A3008 RMK A01 T03150148  RH  037%=      5-min Rain = 0
KPD4 142323Z 07007KT 31/15 A3008 RMK A01 T03140146  RH  036%=      5-min Rain = 0
KPD4 142324Z 07006KT 31/15 A3008 RMK A01 T03130147  RH  036%=      5-min Rain = 0
KPD4 142325Z 06006KT 31/15 A3008 RMK A01 T03130147  RH  037%=      5-min Rain = 0
KPD4 142326Z 08007KT 31/15 A3008 RMK A01 T03120146  RH  037%=      5-min Rain = 0
KPD4 142327Z 10005KT 31/14 A3008 RMK A01 T03120144  RH  036%=      5-min Rain = 0
KPD4 142328Z 09004KT 31/15 A3008 RMK A01 T03110146  RH  037%=      5-min Rain = 0
KPD4 142329Z 08004KT 31/15 A3008 RMK A01 T03100151  RH  038%=      5-min Rain = 0
KPD4 142330Z 08004KT 31/15 A3008 RMK A01 T03100153  RH  039%=      5-min Rain = 0
KPD4 142331Z 07007KT 31/15 A3008 RMK A01 T03110152  RH  038%=      5-min Rain = 0
KPD4 142332Z 08007KT 31/15 A3008 RMK A01 T03110149  RH  037%=      5-min Rain = 0
KPD4 142333Z 09006KT 31/15 A3008 RMK A01 T03120149  RH  037%=      5-min Rain = 0
KPD4 142334Z 10006KT 31/15 A3008 RMK A01 T03120147  RH  037%=      5-min Rain = 0
KPD4 142335Z 09005KT 31/15 A3008 RMK A01 T03110149  RH  037%=      5-min Rain = 0
KPD4 142336Z 08006KT 31/15 A3008 RMK A01 T03100151  RH  038%=      5-min Rain = 0
KPD4 142337Z 07005KT 31/15 A3008 RMK A01 T03100152  RH  038%=      5-min Rain = 0
KPD4 142338Z 07006KT 31/15 A3008 RMK A01 T03100150  RH  038%=      5-min Rain = 0
KPD4 142339Z 08008KT 31/15 A3008 RMK A01 T03110147  RH  037%=      5-min Rain = 0
KPD4 142340Z 08008KT 31/15 A3008 RMK A01 T03110148  RH  037%=      5-min Rain = 0
KPD4 142341Z 08007KT 31/15 A3008 RMK A01 T03110147  RH  037%=      5-min Rain = 0
KPD4 142342Z 07007KT 31/15 A3008 RMK A01 T03100146  RH  037%=      5-min Rain = 0
KPD4 142343Z 08005KT 31/15 A3008 RMK A01 T03100145  RH  037%=      5-min Rain = 0
KPD4 142344Z 11006KT 31/15 A3008 RMK A01 T03100149  RH  038%=      5-min Rain = 0
KPD4 142345Z 10006KT 31/15 A3008 RMK A01 T03110145  RH  037%=      5-min Rain = 0
KPD4 142346Z 10006KT 31/15 A3008 RMK A01 T03110147  RH  037%=      5-min Rain = 0
KPD4 142347Z 09007KT 31/15 A3008 RMK A01 T03110150  RH  038%=      5-min Rain = 0
KPD4 142348Z 09007KT 31/15 A3008 RMK A01 T03110148  RH  037%=      5-min Rain = 0
KPD4 142349Z 09007KT 31/15 A3008 RMK A01 T03110147  RH  037%=      5-min Rain = 0
KPD4 142350Z 09006KT 31/15 A3008 RMK A01 T03100151  RH  038%=      5-min Rain = 0
KPD4 142351Z 08005KT 31/15 A3008 RMK A01 T03100151  RH  038%=      5-min Rain = 0
KPD4 142352Z 08005KT 31/15 A3008 RMK A01 T03110153  RH  039%=      5-min Rain = 0
KPD4 142353Z 08007KT 31/15 A3008 RMK A01 T03110150  RH  038%=      5-min Rain = 0
KPD4 142354Z 08006KT 31/15 A3008 RMK A01 T03110150  RH  038%=      5-min Rain = 0
KPD4 142355Z 09006KT 31/15 A3008 RMK A01 T03100150  RH  038%=      5-min Rain = 0
KPD4 142356Z 08006KT 31/15 A3008 RMK A01 T03110151  RH  038%=      5-min Rain = 0
KPD4 142357Z 08007KT 31/15 A3008 RMK A01 T03110151  RH  038%=      5-min Rain = 0
KPD4 142358Z 09007KT 31/15 A3008 RMK A01 T03110149  RH  037%=      5-min Rain = 0
KPD4 142359Z 08006KT 31/15 A3008 RMK A01 T03100151  RH  038%=      5-min Rain = 0
KPD4 150000Z 08007KT 31/15 A3008 RMK A01 T03100148  RH  038%=      5-min Rain = 0
KPD4 150001Z 08007KT 31/15 A3008 RMK A01 T03090147  RH  037%=      5-min Rain = 0
KPD4 150002Z 08006KT 31/15 A3008 RMK A01 T03090148  RH  038%=      5-min Rain = 0
KPD4 150003Z 07007KT 31/15 A3008 RMK A01 T03090151  RH  038%=      5-min Rain = 0
KPD4 150004Z 08007KT 31/15 A3008 RMK A01 T03090151  RH  038%=      5-min Rain = 0
KPD4 150005Z 09008KT 31/15 A3008 RMK A01 T03090151  RH  038%=      5-min Rain = 0
KPD4 150006Z 08008KT 31/15 A3008 RMK A01 T03080149  RH  038%=      5-min Rain = 0
KPD4 150007Z 08010KT 31/15 A3008 RMK A01 T03070147  RH  038%=      5-min Rain = 0
KPD4 150008Z 09009KT 31/15 A3008 RMK A01 T03050145  RH  038%=      5-min Rain = 0
KPD4 150009Z 08008KT 30/15 A3008 RMK A01 T03040147  RH  039%=      5-min Rain = 0
KPD4 150010Z 08008KT 30/15 A3008 RMK A01 T03020147  RH  039%=      5-min Rain = 0
KPD4 150011Z 09007KT 30/15 A3008 RMK A01 T03020150  RH  040%=      5-min Rain = 0
KPD4 150012Z 09006KT 30/15 A3008 RMK A01 T03020152  RH  040%=      5-min Rain = 0
KPD4 150013Z 10007KT 30/15 A3008 RMK A01 T03020150  RH  040%=      5-min Rain = 0
KPD4 150014Z 10009KT 30/15 A3008 RMK A01 T03020146  RH  039%=      5-min Rain = 0
KPD4 150015Z 09008KT 30/15 A3008 RMK A01 T03020145  RH  038%=      5-min Rain = 0
KPD4 150016Z 09008KT 30/15 A3008 RMK A01 T03030146  RH  038%=      5-min Rain = 0
KPD4 150017Z 09006KT 30/15 A3008 RMK A01 T03040148  RH  039%=      5-min Rain = 0
KPD4 150018Z 08006KT 30/15 A3008 RMK A01 T03040154  RH  040%=      5-min Rain = 0
KPD4 150019Z 09006KT 30/15 A3008 RMK A01 T03030150  RH  039%=      5-min Rain = 0
KPD4 150020Z 08006KT 30/15 A3008 RMK A01 T03030149  RH  039%=      5-min Rain = 0
KPD4 150021Z 09007KT 30/15 A3008 RMK A01 T03020152  RH  040%=      5-min Rain = 0
KPD4 150022Z 08007KT 30/15 A3008 RMK A01 T03010149  RH  040%=      5-min Rain = 0
KPD4 150023Z 08006KT 30/15 A3008 RMK A01 T03000153  RH  041%=      5-min Rain = 0
KPD4 150024Z 08007KT 30/15 A3008 RMK A01 T03000151  RH  041%=      5-min Rain = 0
KPD4 150025Z 08007KT 30/15 A3008 RMK A01 T02990153  RH  041%=      5-min Rain = 0
KPD4 150026Z 08007KT 30/15 A3008 RMK A01 T02970152  RH  041%=      5-min Rain = 0
KPD4 150027Z 08007KT 30/15 A3008 RMK A01 T02960151  RH  041%=      5-min Rain = 0
KPD4 150028Z 08007KT 30/15 A3008 RMK A01 T02950151  RH  042%=      5-min Rain = 0
KPD4 150029Z 08007KT 30/15 A3008 RMK A01 T02950151  RH  042%=      5-min Rain = 0
KPD4 150030Z 08007KT 29/15 A3008 RMK A01 T02940151  RH  042%=      5-min Rain = 0
KPD4 150031Z 08007KT 29/15 A3008 RMK A01 T02940151  RH  042%=      5-min Rain = 0
KPD4 150032Z 09007KT 29/15 A3008 RMK A01 T02940151  RH  042%=      5-min Rain = 0
KPD4 150033Z 09007KT 29/15 A3008 RMK A01 T02940152  RH  042%=      5-min Rain = 0
KPD4 150034Z 08007KT 29/15 A3008 RMK A01 T02930151  RH  042%=      5-min Rain = 0
KPD4 150035Z 08006KT 29/15 A3008 RMK A01 T02930150  RH  042%=      5-min Rain = 0
KPD4 150036Z 08007KT 29/15 A3008 RMK A01 T02930154  RH  043%=      5-min Rain = 0
KPD4 150037Z 08006KT 29/15 A3008 RMK A01 T02910153  RH  043%=      5-min Rain = 0
KPD4 150038Z 08007KT 29/15 A3008 RMK A01 T02900153  RH  043%=      5-min Rain = 0
KPD4 150039Z 08007KT 29/15 A3008 RMK A01 T02900152  RH  043%=      5-min Rain = 0
KPD4 150040Z 08007KT 29/15 A3008 RMK A01 T02900152  RH  043%=      5-min Rain = 0
KPD4 150041Z 08007KT 29/15 A3008 RMK A01 T02890152  RH  043%=      5-min Rain = 0
KPD4 150042Z 08007KT 29/15 A3008 RMK A01 T02890151  RH  043%=      5-min Rain = 0
KPD4 150043Z 08007KT 29/15 A3008 RMK A01 T02890151  RH  043%=      5-min Rain = 0
KPD4 150044Z 08007KT 29/15 A3008 RMK A01 T02890152  RH  043%=      5-min Rain = 0
KPD4 150045Z 08007KT 29/15 A3008 RMK A01 T02880152  RH  043%=      5-min Rain = 0
KPD4 150046Z 08007KT 29/15 A3008 RMK A01 T02870152  RH  044%=      5-min Rain = 0
KPD4 150047Z 08007KT 29/15 A3008 RMK A01 T02870152  RH  044%=      5-min Rain = 0
KPD4 150048Z 08006KT 29/15 A3008 RMK A01 T02870152  RH  044%=      5-min Rain = 0
KPD4 150049Z 08006KT 29/15 A3008 RMK A01 T02860153  RH  044%=      5-min Rain = 0
KPD4 150050Z 08006KT 29/15 A3008 RMK A01 T02860153  RH  044%=      5-min Rain = 0
KPD4 150051Z 08006KT 29/15 A3008 RMK A01 T02860154  RH  045%=      5-min Rain = 0
KPD4 150052Z 08006KT 29/15 A3008 RMK A01 T02850154  RH  045%=      5-min Rain = 0
KPD4 150053Z 08006KT 28/15 A3008 RMK A01 T02840154  RH  045%=      5-min Rain = 0
KPD4 150054Z 08006KT 28/16 A3008 RMK A01 T02840155  RH  045%=      5-min Rain = 0
KPD4 150055Z 08006KT 28/15 A3008 RMK A01 T02830154  RH  045%=      5-min Rain = 0
KPD4 150056Z 08006KT 28/15 A3008 RMK A01 T02830153  RH  045%=      5-min Rain = 0
KPD4 150057Z 08006KT 28/15 A3008 RMK A01 T02830154  RH  045%=      5-min Rain = 0
KPD4 150058Z 08006KT 28/15 A3008 RMK A01 T02830154  RH  045%=      5-min Rain = 0
KPD4 150059Z 08006KT 28/15 A3008 RMK A01 T02820153  RH  045%=      5-min Rain = 0
KPD4 150100Z 08006KT 28/15 A3008 RMK A01 T02820154  RH  045%=      5-min Rain = 0
KPD4 150101Z 08006KT 28/15 A3008 RMK A01 T02820154  RH  046%=      5-min Rain = 0
KPD4 150102Z 08007KT 28/16 A3008 RMK A01 T02820155  RH  046%=      5-min Rain = 0
KPD4 150103Z 08007KT 28/15 A3008 RMK A01 T02820153  RH  046%=      5-min Rain = 0
KPD4 150104Z 08007KT 28/16 A3008 RMK A01 T02810155  RH  046%=      5-min Rain = 0
KPD4 150105Z 08007KT 28/16 A3008 RMK A01 T02810155  RH  046%=      5-min Rain = 0
KPD4 150106Z 08006KT 28/15 A3008 RMK A01 T02790154  RH  047%=      5-min Rain = 0
KPD4 150107Z 08006KT 28/15 A3008 RMK A01 T02790154  RH  047%=      5-min Rain = 0
KPD4 150108Z 08006KT 28/16 A3008 RMK A01 T02790155  RH  047%=      5-min Rain = 0
KPD4 150109Z 08006KT 28/16 A3008 RMK A01 T02780156  RH  047%=      5-min Rain = 0
KPD4 150110Z 08006KT 28/16 A3008 RMK A01 T02770156  RH  048%=      5-min Rain = 0
KPD4 150111Z 08006KT 28/16 A3008 RMK A01 T02770156  RH  048%=      5-min Rain = 0
KPD4 150112Z 08006KT 28/16 A3008 RMK A01 T02760157  RH  048%=      5-min Rain = 0
KPD4 150113Z 08006KT 28/16 A3008 RMK A01 T02760158  RH  049%=      5-min Rain = 0
KPD4 150114Z 08006KT 27/16 A3008 RMK A01 T02740158  RH  049%=      5-min Rain = 0
KPD4 150115Z 08006KT 27/16 A3008 RMK A01 T02740158  RH  049%=      5-min Rain = 0
KPD4 150116Z 08007KT 27/16 A3008 RMK A01 T02730158  RH  050%=      5-min Rain = 0
KPD4 150117Z 08007KT 27/16 A3008 RMK A01 T02720158  RH  050%=      5-min Rain = 0
KPD4 150118Z 08006KT 27/16 A3008 RMK A01 T02720157  RH  049%=      5-min Rain = 0
KPD4 150119Z 08008KT 27/15 A3008 RMK A01 T02720154  RH  048%=      5-min Rain = 0
KPD4 150120Z 08007KT 27/16 A3008 RMK A01 T02740156  RH  049%=      5-min Rain = 0
KPD4 150121Z 08007KT 27/16 A3008 RMK A01 T02740159  RH  049%=      5-min Rain = 0
KPD4 150122Z 08008KT 27/16 A3008 RMK A01 T02730159  RH  050%=      5-min Rain = 0
KPD4 150123Z 08008KT 27/16 A3008 RMK A01 T02720155  RH  049%=      5-min Rain = 0
KPD4 150124Z 08009KT 27/15 A3008 RMK A01 T02730154  RH  048%=      5-min Rain = 0
KPD4 150125Z 09008KT 27/15 A3008 RMK A01 T02730152  RH  048%=      5-min Rain = 0
KPD4 150126Z 09009KT 27/15 A3008 RMK A01 T02730149  RH  047%=      5-min Rain = 0
KPD4 150127Z 09009KT 27/15 A3008 RMK A01 T02740151  RH  047%=      5-min Rain = 0
KPD4 150128Z 09007KT 27/15 A3008 RMK A01 T02740151  RH  047%=      5-min Rain = 0
KPD4 150129Z 09008KT 27/15 A3008 RMK A01 T02730153  RH  048%=      5-min Rain = 0
KPD4 150130Z 09007KT 27/15 A3008 RMK A01 T02710154  RH  049%=      5-min Rain = 0
KPD4 150131Z 09007KT 27/16 A3008 RMK A01 T02690155  RH  050%=      5-min Rain = 0
KPD4 150132Z 09007KT 27/16 A3009 RMK A01 T02680156  RH  050%=      5-min Rain = 0
KPD4 150133Z 09007KT 27/16 A3009 RMK A01 T02660156  RH  051%=      5-min Rain = 0
KPD4 150134Z 09007KT 27/16 A3009 RMK A01 T02650156  RH  051%=      5-min Rain = 0
KPD4 150135Z 09006KT 27/16 A3009 RMK A01 T02650156  RH  051%=      5-min Rain = 0
KPD4 150136Z 09007KT 26/16 A3009 RMK A01 T02640156  RH  052%=      5-min Rain = 0
KPD4 150137Z 10007KT 26/16 A3009 RMK A01 T02630155  RH  052%=      5-min Rain = 0
KPD4 150138Z 09007KT 26/16 A3009 RMK A01 T02620155  RH  052%=      5-min Rain = 0
KPD4 150139Z 09007KT 26/15 A3009 RMK A01 T02600154  RH  052%=      5-min Rain = 0
KPD4 150140Z 09008KT 26/15 A3009 RMK A01 T02600153  RH  052%=      5-min Rain = 0
KPD4 150141Z 09008KT 26/15 A3009 RMK A01 T02600152  RH  051%=      5-min Rain = 0
KPD4 150142Z 09008KT 26/15 A3009 RMK A01 T02600151  RH  051%=      5-min Rain = 0
KPD4 150143Z 09009KT 26/15 A3009 RMK A01 T02600148  RH  050%=      5-min Rain = 0
KPD4 150144Z 09009KT 26/15 A3009 RMK A01 T02610147  RH  049%=      5-min Rain = 0
KPD4 150145Z 09009KT 26/15 A3009 RMK A01 T02620147  RH  049%=      5-min Rain = 0
KPD4 150146Z 09010KT 26/15 A3009 RMK A01 T02620146  RH  049%=      5-min Rain = 0
KPD4 150147Z 09010KT 26/15 A3009 RMK A01 T02630146  RH  049%=      5-min Rain = 0
KPD4 150148Z 09010KT 26/15 A3009 RMK A01 T02630146  RH  048%=      5-min Rain = 0
KPD4 150149Z 09009KT 26/15 A3009 RMK A01 T02640147  RH  048%=      5-min Rain = 0
KPD4 150150Z 09009KT 26/15 A3009 RMK A01 T02640147  RH  049%=      5-min Rain = 0
KPD4 150151Z 10009KT 26/15 A3009 RMK A01 T02630147  RH  049%=      5-min Rain = 0
KPD4 150152Z 09009KT 26/15 A3009 RMK A01 T02630147  RH  049%=      5-min Rain = 0
KPD4 150153Z 09009KT 26/15 A3009 RMK A01 T02620147  RH  049%=      5-min Rain = 0
KPD4 150154Z 09008KT 26/15 A301 RMK A01 T02620147  RH  049%=      5-min Rain = 0
KPD4 150155Z 09008KT 26/15 A301 RMK A01 T02610148  RH  050%=      5-min Rain = 0
KPD4 150156Z 09008KT 26/15 A301 RMK A01 T02610148  RH  050%=      5-min Rain = 0
KPD4 150157Z 10008KT 26/15 A301 RMK A01 T02600149  RH  050%=      5-min Rain = 0
KPD4 150158Z 10009KT 26/15 A301 RMK A01 T02590148  RH  050%=      5-min Rain = 0
KPD4 150159Z 10009KT 26/15 A301 RMK A01 T02590147  RH  050%=      5-min Rain = 0
KPD4 150200Z 10008KT 26/15 A301 RMK A01 T02600147  RH  050%=      5-min Rain = 0
KPD4 150201Z 10009KT 26/15 A301 RMK A01 T02600146  RH  050%=      5-min Rain = 0
KPD4 150202Z 10009KT 26/15 A301 RMK A01 T02600146  RH  049%=      5-min Rain = 0
KPD4 150203Z 10009KT 26/15 A301 RMK A01 T02590145  RH  049%=      5-min Rain = 0
KPD4 150204Z 09009KT 26/15 A301 RMK A01 T02600145  RH  049%=      5-min Rain = 0
KPD4 150205Z 09009KT 26/15 A301 RMK A01 T02600145  RH  049%=      5-min Rain = 0
KPD4 150206Z 09009KT 26/15 A301 RMK A01 T02600145  RH  049%=      5-min Rain = 0
KPD4 150207Z 10010KT 26/15 A301 RMK A01 T02600145  RH  049%=      5-min Rain = 0
KPD4 150208Z 09009KT 26/15 A301 RMK A01 T02600145  RH  049%=      5-min Rain = 0
KPD4 150209Z 09009KT 26/15 A301 RMK A01 T02600146  RH  049%=      5-min Rain = 0
KPD4 150210Z 09008KT 26/15 A3011 RMK A01 T02590146  RH  050%=      5-min Rain = 0
KPD4 150211Z 10007KT 26/15 A3011 RMK A01 T02580145  RH  050%=      5-min Rain = 0
KPD4 150212Z 10007KT 26/15 A3011 RMK A01 T02570146  RH  050%=      5-min Rain = 0
KPD4 150213Z 10006KT 26/15 A3011 RMK A01 T02560146  RH  051%=      5-min Rain = 0
KPD4 150214Z 11006KT 26/15 A3011 RMK A01 T02550146  RH  051%=      5-min Rain = 0
KPD4 150215Z 11007KT 26/15 A3011 RMK A01 T02550146  RH  051%=      5-min Rain = 0
KPD4 150216Z 11007KT 25/15 A3011 RMK A01 T02540146  RH  051%=      5-min Rain = 0
KPD4 150217Z 11007KT 25/15 A3011 RMK A01 T02540148  RH  052%=      5-min Rain = 0
KPD4 150218Z 11007KT 25/15 A3011 RMK A01 T02540149  RH  052%=      5-min Rain = 0
KPD4 150219Z 12008KT 25/15 A3011 RMK A01 T02530149  RH  052%=      5-min Rain = 0
KPD4 150220Z 11009KT 25/15 A3011 RMK A01 T02530146  RH  051%=      5-min Rain = 0
KPD4 150221Z 11008KT 25/15 A3011 RMK A01 T02540145  RH  051%=      5-min Rain = 0
KPD4 150222Z 11009KT 26/14 A3011 RMK A01 T02560142  RH  049%=      5-min Rain = 0
KPD4 150223Z 10007KT 26/14 A3011 RMK A01 T02570143  RH  049%=      5-min Rain = 0
KPD4 150224Z 11009KT 26/14 A3011 RMK A01 T02580143  RH  049%=      5-min Rain = 0
KPD4 150225Z 11008KT 26/14 A3011 RMK A01 T02570143  RH  049%=      5-min Rain = 0
KPD4 150226Z 11009KT 26/14 A3011 RMK A01 T02570142  RH  049%=      5-min Rain = 0
KPD4 150227Z 11008KT 26/14 A3011 RMK A01 T02560143  RH  050%=      5-min Rain = 0
KPD4 150228Z 11008KT 26/14 A3012 RMK A01 T02550144  RH  050%=      5-min Rain = 0
KPD4 150229Z 11009KT 25/14 A3012 RMK A01 T02540142  RH  050%=      5-min Rain = 0
KPD4 150230Z 11008KT 25/14 A3012 RMK A01 T02540140  RH  049%=      5-min Rain = 0
KPD4 150231Z 11008KT 26/14 A3012 RMK A01 T02550141  RH  049%=      5-min Rain = 0
KPD4 150232Z 11007KT 26/14 A3012 RMK A01 T02550141  RH  049%=      5-min Rain = 0
KPD4 150233Z 11007KT 26/14 A3012 RMK A01 T02550142  RH  049%=      5-min Rain = 0
KPD4 150234Z 11007KT 26/14 A3012 RMK A01 T02550143  RH  050%=      5-min Rain = 0
KPD4 150235Z 11008KT 26/14 A3012 RMK A01 T02550143  RH  050%=      5-min Rain = 0
KPD4 150236Z 11008KT 25/14 A3012 RMK A01 T02540143  RH  050%=      5-min Rain = 0
KPD4 150237Z 11008KT 25/14 A3012 RMK A01 T02530143  RH  050%=      5-min Rain = 0
KPD4 150238Z 11008KT 25/14 A3012 RMK A01 T02520144  RH  051%=      5-min Rain = 0
KPD4 150239Z 11009KT 25/14 A3012 RMK A01 T02520143  RH  051%=      5-min Rain = 0
KPD4 150240Z 11008KT 25/14 A3012 RMK A01 T02510142  RH  051%=      5-min Rain = 0
KPD4 150241Z 11007KT 25/14 A3013 RMK A01 T02510143  RH  051%=      5-min Rain = 0
KPD4 150242Z 11008KT 25/14 A3013 RMK A01 T02510144  RH  051%=      5-min Rain = 0
KPD4 150243Z 11008KT 25/14 A3013 RMK A01 T02500143  RH  051%=      5-min Rain = 0
KPD4 150244Z 11008KT 25/14 A3013 RMK A01 T02500143  RH  051%=      5-min Rain = 0
KPD4 150245Z 11007KT 25/14 A3013 RMK A01 T02500143  RH  051%=      5-min Rain = 0
KPD4 150246Z 11008KT 25/14 A3013 RMK A01 T02500144  RH  052%=      5-min Rain = 0
KPD4 150247Z 11008KT 25/14 A3013 RMK A01 T02490142  RH  051%=      5-min Rain = 0
KPD4 150248Z 11008KT 25/14 A3013 RMK A01 T02500142  RH  051%=      5-min Rain = 0
KPD4 150249Z 10009KT 25/14 A3013 RMK A01 T02500142  RH  051%=      5-min Rain = 0
KPD4 150250Z 11008KT 25/14 A3013 RMK A01 T02500142  RH  051%=      5-min Rain = 0
KPD4 150251Z 10008KT 25/14 A3013 RMK A01 T02490143  RH  052%=      5-min Rain = 0
KPD4 150252Z 11009KT 25/14 A3013 RMK A01 T02480142  RH  052%=      5-min Rain = 0
KPD4 150253Z 11009KT 25/14 A3013 RMK A01 T02480141  RH  051%=      5-min Rain = 0
KPD4 150254Z 11007KT 25/14 A3013 RMK A01 T02490142  RH  051%=      5-min Rain = 0
KPD4 150255Z 11009KT 25/14 A3013 RMK A01 T02480143  RH  052%=      5-min Rain = 0
KPD4 150256Z 11009KT 25/14 A3013 RMK A01 T02480142  RH  052%=      5-min Rain = 0
KPD4 150257Z 11008KT 25/14 A3013 RMK A01 T02470143  RH  052%=      5-min Rain = 0
KPD4 150258Z 11009KT 25/14 A3013 RMK A01 T02470143  RH  052%=      5-min Rain = 0
KPD4 150259Z 11008KT 25/14 A3013 RMK A01 T02460144  RH  053%=      5-min Rain = 0
KPD4 150300Z 11009KT 25/14 A3013 RMK A01 T02450144  RH  053%=      5-min Rain = 0
KPD4 150301Z 11008KT 25/14 A3013 RMK A01 T02450143  RH  053%=      5-min Rain = 0
KPD4 150302Z 10009KT 25/14 A3013 RMK A01 T02450143  RH  053%=      5-min Rain = 0
KPD4 150303Z 10008KT 25/14 A3013 RMK A01 T02450144  RH  053%=      5-min Rain = 0
KPD4 150304Z 11008KT 24/14 A3013 RMK A01 T02440144  RH  054%=      5-min Rain = 0
KPD4 150305Z 11008KT 24/14 A3013 RMK A01 T02440144  RH  054%=      5-min Rain = 0
KPD4 150306Z 10008KT 24/14 A3014 RMK A01 T02430144  RH  054%=      5-min Rain = 0
KPD4 150307Z 11009KT 24/14 A3014 RMK A01 T02430144  RH  054%=      5-min Rain = 0
KPD4 150308Z 10009KT 24/14 A3014 RMK A01 T02430143  RH  054%=      5-min Rain = 0
KPD4 150309Z 10008KT 24/14 A3014 RMK A01 T02440142  RH  053%=      5-min Rain = 0
KPD4 150310Z 11008KT 25/14 A3014 RMK A01 T02450143  RH  053%=      5-min Rain = 0
KPD4 150311Z 11008KT 25/14 A3014 RMK A01 T02450143  RH  053%=      5-min Rain = 0
KPD4 150312Z 11007KT 24/14 A3014 RMK A01 T02440144  RH  053%=      5-min Rain = 0
KPD4 150313Z 11008KT 24/14 A3014 RMK A01 T02440143  RH  054%=      5-min Rain = 0
KPD4 150314Z 11007KT 24/14 A3014 RMK A01 T02440143  RH  053%=      5-min Rain = 0
KPD4 150315Z 11009KT 24/14 A3014 RMK A01 T02440144  RH  053%=      5-min Rain = 0
KPD4 150316Z 10009KT 24/14 A3014 RMK A01 T02440143  RH  053%=      5-min Rain = 0
KPD4 150317Z 11008KT 24/14 A3014 RMK A01 T02440143  RH  053%=      5-min Rain = 0
KPD4 150318Z 11008KT 24/14 A3014 RMK A01 T02430144  RH  054%=      5-min Rain = 0
KPD4 150319Z 11008KT 24/14 A3014 RMK A01 T02430144  RH  054%=      5-min Rain = 0
KPD4 150320Z 11008KT 24/14 A3014 RMK A01 T02420144  RH  054%=      5-min Rain = 0
KPD4 150321Z 11009KT 24/14 A3014 RMK A01 T02410144  RH  054%=      5-min Rain = 0
KPD4 150322Z 11008KT 24/14 A3014 RMK A01 T02410143  RH  054%=      5-min Rain = 0
KPD4 150323Z 11008KT 24/14 A3014 RMK A01 T02410143  RH  054%=      5-min Rain = 0
KPD4 150324Z 11008KT 24/14 A3014 RMK A01 T02420143  RH  054%=      5-min Rain = 0
KPD4 150325Z 11008KT 24/14 A3015 RMK A01 T02420143  RH  054%=      5-min Rain = 0
KPD4 150326Z 10008KT 24/14 A3015 RMK A01 T02420143  RH  054%=      5-min Rain = 0
KPD4 150327Z 11008KT 24/14 A3015 RMK A01 T02420142  RH  054%=      5-min Rain = 0
KPD4 150328Z 11008KT 24/14 A3015 RMK A01 T02420143  RH  054%=      5-min Rain = 0
KPD4 150329Z 10007KT 24/14 A3015 RMK A01 T02420143  RH  054%=      5-min Rain = 0
KPD4 150330Z 10007KT 24/14 A3015 RMK A01 T02410144  RH  054%=      5-min Rain = 0
KPD4 150331Z 10009KT 24/14 A3015 RMK A01 T02400144  RH  055%=      5-min Rain = 0
KPD4 150332Z 10008KT 24/14 A3015 RMK A01 T02390144  RH  055%=      5-min Rain = 0
KPD4 150333Z 10009KT 24/14 A3015 RMK A01 T02390143  RH  055%=      5-min Rain = 0
KPD4 150334Z 10008KT 24/14 A3015 RMK A01 T02390143  RH  055%=      5-min Rain = 0
KPD4 150335Z 10008KT 24/14 A3015 RMK A01 T02390143  RH  055%=      5-min Rain = 0
KPD4 150336Z 10009KT 24/14 A3015 RMK A01 T02390143  RH  055%=      5-min Rain = 0
KPD4 150337Z 10008KT 24/14 A3016 RMK A01 T02390143  RH  055%=      5-min Rain = 0
KPD4 150338Z 10008KT 24/14 A3016 RMK A01 T02380142  RH  055%=      5-min Rain = 0
KPD4 150339Z 10010KT 24/14 A3016 RMK A01 T02380141  RH  054%=      5-min Rain = 0
KPD4 150340Z 10009KT 24/14 A3016 RMK A01 T02380140  RH  054%=      5-min Rain = 0
KPD4 150341Z 10009KT 24/14 A3016 RMK A01 T02390141  RH  054%=      5-min Rain = 0
KPD4 150342Z 10009KT 24/14 A3016 RMK A01 T02390142  RH  054%=      5-min Rain = 0
KPD4 150343Z 10008KT 24/14 A3016 RMK A01 T02390141  RH  054%=      5-min Rain = 0
KPD4 150344Z 10009KT 24/14 A3016 RMK A01 T02390141  RH  054%=      5-min Rain = 0
KPD4 150345Z 10009KT 24/14 A3016 RMK A01 T02390140  RH  054%=      5-min Rain = 0
KPD4 150346Z 10010KT 24/14 A3016 RMK A01 T02390140  RH  054%=      5-min Rain = 0
KPD4 150347Z 10010KT 24/14 A3016 RMK A01 T02390140  RH  054%=      5-min Rain = 0
KPD4 150348Z 10009KT 24/14 A3016 RMK A01 T02390139  RH  054%=      5-min Rain = 0
KPD4 150349Z 10009KT 24/14 A3016 RMK A01 T02390140  RH  054%=      5-min Rain = 0
KPD4 150350Z 10009KT 24/14 A3016 RMK A01 T02390140  RH  054%=      5-min Rain = 0
KPD4 150351Z 10009KT 24/14 A3016 RMK A01 T02390141  RH  054%=      5-min Rain = 0
KPD4 150352Z 10010KT 24/14 A3017 RMK A01 T02390141  RH  054%=      5-min Rain = 0
KPD4 150353Z 10010KT 24/14 A3017 RMK A01 T02390142  RH  054%=      5-min Rain = 0
KPD4 150354Z 10010KT 24/14 A3017 RMK A01 T02390141  RH  054%=      5-min Rain = 0
KPD4 150355Z 10009KT 24/14 A3017 RMK A01 T02390141  RH  054%=      5-min Rain = 0
KPD4 150356Z 10010KT 24/14 A3017 RMK A01 T02390142  RH  055%=      5-min Rain = 0
KPD4 150357Z 10009KT 24/14 A3017 RMK A01 T02390143  RH  055%=      5-min Rain = 0
KPD4 150358Z 10009KT 24/14 A3017 RMK A01 T02380143  RH  055%=      5-min Rain = 0
KPD4 150359Z 10011KT 24/14 A3017 RMK A01 T02380142  RH  055%=      5-min Rain = 0
KPD4 150400Z 10010KT 24/14 A3017 RMK A01 T02380141  RH  055%=      5-min Rain = 0
KPD4 150401Z 10010KT 24/14 A3017 RMK A01 T02390142  RH  055%=      5-min Rain = 0
KPD4 150402Z 10010KT 24/14 A3017 RMK A01 T02390142  RH  055%=      5-min Rain = 0
KPD4 150403Z 10010KT 24/14 A3017 RMK A01 T02390141  RH  054%=      5-min Rain = 0
KPD4 150404Z 10009KT 24/14 A3017 RMK A01 T02400142  RH  054%=      5-min Rain = 0
KPD4 150405Z 10010KT 24/14 A3017 RMK A01 T02400141  RH  054%=      5-min Rain = 0
KPD4 150406Z 10010KT 24/14 A3017 RMK A01 T02400142  RH  054%=      5-min Rain = 0
KPD4 150407Z 10011KT 24/14 A3017 RMK A01 T02390142  RH  054%=      5-min Rain = 0
KPD4 150408Z 10011KT 24/14 A3017 RMK A01 T02390141  RH  054%=      5-min Rain = 0
KPD4 150409Z 10012KT 24/14 A3017 RMK A01 T02380141  RH  054%=      5-min Rain = 0
KPD4 150410Z 10013KT 24/14 A3017 RMK A01 T02380140  RH  054%=      5-min Rain = 0
KPD4 150411Z 10012KT 24/14 A3017 RMK A01 T02380140  RH  054%=      5-min Rain = 0
KPD4 150412Z 10013KT 24/14 A3017 RMK A01 T02390140  RH  054%=      5-min Rain = 0
KPD4 150413Z 10013KT 24/14 A3017 RMK A01 T02400139  RH  053%=      5-min Rain = 0
KPD4 150414Z 10012KT 24/14 A3018 RMK A01 T02410139  RH  053%=      5-min Rain = 0
KPD4 150415Z 10011KT 24/14 A3018 RMK A01 T02410140  RH  053%=      5-min Rain = 0
KPD4 150416Z 10011KT 24/14 A3018 RMK A01 T02410140  RH  053%=      5-min Rain = 0
KPD4 150417Z 09009KT 24/14 A3018 RMK A01 T02410140  RH  053%=      5-min Rain = 0
KPD4 150418Z 09009KT 24/14 A3018 RMK A01 T02410141  RH  053%=      5-min Rain = 0
KPD4 150419Z 09008KT 24/14 A3018 RMK A01 T02410140  RH  053%=      5-min Rain = 0
KPD4 150420Z 09010KT 24/14 A3018 RMK A01 T02400140  RH  054%=      5-min Rain = 0
KPD4 150421Z 09012KT 24/14 A3018 RMK A01 T02390140  RH  054%=      5-min Rain = 0
KPD4 150422Z 09010KT 24/14 A3018 RMK A01 T02400140  RH  054%=      5-min Rain = 0
KPD4 150423Z 09011KT 24/14 A3018 RMK A01 T02390140  RH  054%=      5-min Rain = 0
KPD4 150424Z 09011KT 24/14 A3018 RMK A01 T02390141  RH  054%=      5-min Rain = 0
KPD4 150425Z 09011KT 24/14 A3018 RMK A01 T02390141  RH  054%=      5-min Rain = 0
KPD4 150426Z 09010KT 24/14 A3018 RMK A01 T02390141  RH  054%=      5-min Rain = 0
KPD4 150427Z 09011KT 24/14 A3018 RMK A01 T02390141  RH  054%=      5-min Rain = 0
KPD4 150428Z 09012KT 24/14 A3018 RMK A01 T02390141  RH  054%=      5-min Rain = 0
KPD4 150429Z 09011KT 24/14 A3018 RMK A01 T02390141  RH  054%=      5-min Rain = 0
KPD4 150430Z 09011KT 24/14 A3018 RMK A01 T02390141  RH  054%=      5-min Rain = 0
KPD4 150431Z 09012KT 24/14 A3018 RMK A01 T02390142  RH  055%=      5-min Rain = 0
KPD4 150432Z 09010KT 24/14 A3018 RMK A01 T02380142  RH  055%=      5-min Rain = 0
KPD4 150433Z 09012KT 24/14 A3018 RMK A01 T02380142  RH  055%=      5-min Rain = 0
KPD4 150434Z 10012KT 24/14 A3018 RMK A01 T02380142  RH  055%=      5-min Rain = 0
KPD4 150435Z 10012KT 24/14 A3018 RMK A01 T02380142  RH  055%=      5-min Rain = 0
KPD4 150436Z 10012KT 24/14 A3018 RMK A01 T02390142  RH  055%=      5-min Rain = 0
KPD4 150437Z 10011KT 24/14 A3018 RMK A01 T02390144  RH  055%=      5-min Rain = 0
KPD4 150438Z 10011KT 24/15 A3018 RMK A01 T02390145  RH  056%=      5-min Rain = 0
KPD4 150439Z 10011KT 24/15 A3018 RMK A01 T02380145  RH  056%=      5-min Rain = 0
KPD4 150440Z 10011KT 24/15 A3018 RMK A01 T02380145  RH  056%=      5-min Rain = 0
KPD4 150441Z 11010KT 24/15 A3017 RMK A01 T02370146  RH  056%=      5-min Rain = 0
KPD4 150442Z 10012KT 24/15 A3017 RMK A01 T02360146  RH  057%=      5-min Rain = 0
KPD4 150443Z 10010KT 24/15 A3017 RMK A01 T02360146  RH  057%=      5-min Rain = 0
KPD4 150444Z 10009KT 24/15 A3017 RMK A01 T02350147  RH  058%=      5-min Rain = 0
KPD4 150445Z 10010KT 23/15 A3017 RMK A01 T02340147  RH  058%=      5-min Rain = 0
KPD4 150446Z 11011KT 23/15 A3017 RMK A01 T02340147  RH  058%=      5-min Rain = 0
KPD4 150447Z 10012KT 23/15 A3017 RMK A01 T02340146  RH  058%=      5-min Rain = 0
KPD4 150448Z 10010KT 24/15 A3017 RMK A01 T02350146  RH  058%=      5-min Rain = 0
KPD4 150449Z 11009KT 24/15 A3017 RMK A01 T02350148  RH  058%=      5-min Rain = 0
KPD4 150450Z 10011KT 24/15 A3017 RMK A01 T02350147  RH  058%=      5-min Rain = 0
KPD4 150451Z 10011KT 24/15 A3017 RMK A01 T02350147  RH  058%=      5-min Rain = 0
KPD4 150452Z 11010KT 24/15 A3017 RMK A01 T02350147  RH  058%=      5-min Rain = 0
KPD4 150453Z 11011KT 24/15 A3017 RMK A01 T02360148  RH  058%=      5-min Rain = 0
KPD4 150454Z 11010KT 24/15 A3017 RMK A01 T02360148  RH  058%=      5-min Rain = 0
KPD4 150455Z 10011KT 24/15 A3016 RMK A01 T02360149  RH  058%=      5-min Rain = 0
KPD4 150456Z 10009KT 24/15 A3016 RMK A01 T02360149  RH  058%=      5-min Rain = 0
KPD4 150457Z 10010KT 24/15 A3016 RMK A01 T02350149  RH  058%=      5-min Rain = 0
KPD4 150458Z 10010KT 23/15 A3016 RMK A01 T02340148  RH  059%=      5-min Rain = 0
KPD4 150459Z 10011KT 23/15 A3016 RMK A01 T02330148  RH  059%=      5-min Rain = 0

Page generated in 0.1216 seconds.